Observation data for Fritch on 07/04/2020      Previous  Date  Next       Current Mesonet Observations  Soil Data  Daily Summary Page  Observations in Plain Language
KFR1 040500Z 05008KT 25/13 A3013 RMK A01 T02520134  RH  048%=      5-min Rain = 0
KFR1 040501Z 06008KT 25/13 A3013 RMK A01 T02520133  RH  048%=      5-min Rain = 0
KFR1 040502Z 06008KT 25/13 A3013 RMK A01 T02520133  RH  048%=      5-min Rain = 0
KFR1 040503Z 07008KT 25/13 A3013 RMK A01 T02520133  RH  048%=      5-min Rain = 0
KFR1 040504Z 06007KT 25/13 A3013 RMK A01 T02520133  RH  048%=      5-min Rain = 0
KFR1 040505Z 07006KT 25/13 A3012 RMK A01 T02530133  RH  048%=      5-min Rain = 0
KFR1 040506Z 08004KT 25/13 A3012 RMK A01 T02520134  RH  048%=      5-min Rain = 0
KFR1 040507Z 08004KT 25/13 A3012 RMK A01 T02520134  RH  048%=      5-min Rain = 0
KFR1 040508Z 07005KT 25/13 A3012 RMK A01 T02520134  RH  048%=      5-min Rain = 0
KFR1 040509Z 08005KT 25/13 A3013 RMK A01 T02520134  RH  048%=      5-min Rain = 0
KFR1 040510Z 08005KT 25/13 A3013 RMK A01 T02520134  RH  048%=      5-min Rain = 0
KFR1 040511Z 06005KT 25/13 A3013 RMK A01 T02520134  RH  048%=      5-min Rain = 0
KFR1 040512Z 05007KT 25/13 A3013 RMK A01 T02510134  RH  048%=      5-min Rain = 0
KFR1 040513Z 05006KT 25/13 A3013 RMK A01 T02520134  RH  048%=      5-min Rain = 0
KFR1 040514Z 05006KT 25/13 A3013 RMK A01 T02520134  RH  048%=      5-min Rain = 0
KFR1 040515Z 05005KT 25/13 A3013 RMK A01 T02520134  RH  048%=      5-min Rain = 0
KFR1 040516Z 04007KT 25/14 A3013 RMK A01 T02520135  RH  048%=      5-min Rain = 0
KFR1 040517Z 05007KT 25/14 A3013 RMK A01 T02520135  RH  048%=      5-min Rain = 0
KFR1 040518Z 05007KT 25/13 A3013 RMK A01 T02520134  RH  048%=      5-min Rain = 0
KFR1 040519Z 04006KT 25/13 A3013 RMK A01 T02520134  RH  048%=      5-min Rain = 0
KFR1 040520Z 05006KT 25/13 A3013 RMK A01 T02520134  RH  048%=      5-min Rain = 0
KFR1 040521Z 05008KT 25/14 A3013 RMK A01 T02520135  RH  048%=      5-min Rain = 0
KFR1 040522Z 05007KT 25/13 A3013 RMK A01 T02510134  RH  048%=      5-min Rain = 0
KFR1 040523Z 05009KT 25/14 A3013 RMK A01 T02520135  RH  048%=      5-min Rain = 0
KFR1 040524Z 05009KT 25/13 A3013 RMK A01 T02520134  RH  048%=      5-min Rain = 0
KFR1 040525Z 04008KT 25/14 A3013 RMK A01 T02520135  RH  048%=      5-min Rain = 0
KFR1 040526Z 05008KT 25/14 A3013 RMK A01 T02520135  RH  048%=      5-min Rain = 0
KFR1 040527Z 05009KT 25/13 A3013 RMK A01 T02510134  RH  048%=      5-min Rain = 0
KFR1 040528Z 05009KT 25/13 A3013 RMK A01 T02510134  RH  048%=      5-min Rain = 0
KFR1 040529Z 05008KT 25/14 A3013 RMK A01 T02520135  RH  048%=      5-min Rain = 0
KFR1 040530Z 05008KT 25/14 A3013 RMK A01 T02510135  RH  048%=      5-min Rain = 0
KFR1 040531Z 05010KT 25/14 A3013 RMK A01 T02510135  RH  048%=      5-min Rain = 0
KFR1 040532Z 05010KT 25/14 A3013 RMK A01 T02510135  RH  048%=      5-min Rain = 0
KFR1 040533Z 05010KT 25/14 A3013 RMK A01 T02510135  RH  048%=      5-min Rain = 0
KFR1 040534Z 05010KT 25/14 A3013 RMK A01 T02510135  RH  048%=      5-min Rain = 0
KFR1 040535Z 05009KT 25/14 A3013 RMK A01 T02510135  RH  048%=      5-min Rain = 0
KFR1 040536Z 05009KT 25/14 A3013 RMK A01 T02510135  RH  048%=      5-min Rain = 0
KFR1 040537Z 05008KT 25/14 A3013 RMK A01 T02510135  RH  048%=      5-min Rain = 0
KFR1 040538Z 05007KT 25/14 A3013 RMK A01 T02510135  RH  048%=      5-min Rain = 0
KFR1 040539Z 05007KT 25/14 A3013 RMK A01 T02510135  RH  049%=      5-min Rain = 0
KFR1 040540Z 06007KT 25/14 A3013 RMK A01 T02510135  RH  049%=      5-min Rain = 0
KFR1 040541Z 05006KT 25/14 A3013 RMK A01 T02510135  RH  049%=      5-min Rain = 0
KFR1 040542Z 05006KT 25/14 A3013 RMK A01 T02500135  RH  049%=      5-min Rain = 0
KFR1 040543Z 05005KT 25/14 A3013 RMK A01 T02510135  RH  049%=      5-min Rain = 0
KFR1 040544Z 05005KT 25/14 A3013 RMK A01 T02500135  RH  049%=      5-min Rain = 0
KFR1 040545Z 05006KT 25/14 A3013 RMK A01 T02500135  RH  049%=      5-min Rain = 0
KFR1 040546Z 05006KT 25/14 A3013 RMK A01 T02500135  RH  049%=      5-min Rain = 0
KFR1 040547Z 05006KT 25/14 A3013 RMK A01 T02500135  RH  049%=      5-min Rain = 0
KFR1 040548Z 05007KT 25/14 A3013 RMK A01 T02500135  RH  049%=      5-min Rain = 0
KFR1 040549Z 05006KT 25/13 A3013 RMK A01 T02500134  RH  049%=      5-min Rain = 0
KFR1 040550Z 06006KT 25/13 A3012 RMK A01 T02500134  RH  049%=      5-min Rain = 0
KFR1 040551Z 06006KT 25/13 A3012 RMK A01 T02500134  RH  049%=      5-min Rain = 0
KFR1 040552Z 06006KT 25/13 A3012 RMK A01 T02500134  RH  049%=      5-min Rain = 0
KFR1 040553Z 06006KT 25/13 A3012 RMK A01 T02500134  RH  049%=      5-min Rain = 0
KFR1 040554Z 05007KT 25/13 A3012 RMK A01 T02500134  RH  049%=      5-min Rain = 0
KFR1 040555Z 06007KT 25/13 A3012 RMK A01 T02500134  RH  049%=      5-min Rain = 0
KFR1 040556Z 06006KT 25/13 A3012 RMK A01 T02500134  RH  049%=      5-min Rain = 0
KFR1 040557Z 06007KT 25/13 A3012 RMK A01 T02500134  RH  049%=      5-min Rain = 0
KFR1 040558Z 05006KT 25/13 A3012 RMK A01 T02500134  RH  049%=      5-min Rain = 0
KFR1 040559Z 06007KT 25/13 A3012 RMK A01 T02500134  RH  049%=      5-min Rain = 0
KFR1 040600Z 06007KT 25/13 A3012 RMK A01 T02500134  RH  048%=      5-min Rain = 0
KFR1 040601Z 06007KT 25/13 A3012 RMK A01 T02500134  RH  048%=      5-min Rain = 0
KFR1 040602Z 07007KT 25/14 A3012 RMK A01 T02500135  RH  049%=      5-min Rain = 0
KFR1 040603Z 07007KT 25/13 A3012 RMK A01 T02500134  RH  048%=      5-min Rain = 0
KFR1 040604Z 07007KT 25/14 A3012 RMK A01 T02500135  RH  049%=      5-min Rain = 0
KFR1 040605Z 07007KT 25/13 A3012 RMK A01 T02500134  RH  049%=      5-min Rain = 0
KFR1 040606Z 07007KT 25/13 A3012 RMK A01 T02500134  RH  049%=      5-min Rain = 0
KFR1 040607Z 07008KT 25/13 A3012 RMK A01 T02500134  RH  048%=      5-min Rain = 0
KFR1 040608Z 07008KT 25/13 A3012 RMK A01 T02500134  RH  048%=      5-min Rain = 0
KFR1 040609Z 07007KT 25/13 A3012 RMK A01 T02500134  RH  048%=      5-min Rain = 0
KFR1 040610Z 07006KT 25/13 A3012 RMK A01 T02500133  RH  048%=      5-min Rain = 0
KFR1 040611Z 07007KT 25/13 A3012 RMK A01 T02500134  RH  048%=      5-min Rain = 0
KFR1 040612Z 07006KT 25/13 A3012 RMK A01 T02500134  RH  048%=      5-min Rain = 0
KFR1 040613Z 08006KT 25/13 A3012 RMK A01 T02500134  RH  048%=      5-min Rain = 0
KFR1 040614Z 07006KT 25/13 A3012 RMK A01 T02500134  RH  048%=      5-min Rain = 0
KFR1 040615Z 08005KT 25/13 A3012 RMK A01 T02500134  RH  049%=      5-min Rain = 0
KFR1 040616Z 08006KT 25/14 A3012 RMK A01 T02490135  RH  049%=      5-min Rain = 0
KFR1 040617Z 08007KT 25/14 A3012 RMK A01 T02480135  RH  049%=      5-min Rain = 0
KFR1 040618Z 08006KT 25/14 A3012 RMK A01 T02470135  RH  050%=      5-min Rain = 0
KFR1 040619Z 08007KT 25/14 A3012 RMK A01 T02470136  RH  050%=      5-min Rain = 0
KFR1 040620Z 08007KT 25/14 A3012 RMK A01 T02470136  RH  050%=      5-min Rain = 0
KFR1 040621Z 08008KT 25/14 A3012 RMK A01 T02470136  RH  050%=      5-min Rain = 0
KFR1 040622Z 08008KT 25/14 A3012 RMK A01 T02470136  RH  050%=      5-min Rain = 0
KFR1 040623Z 07007KT 25/14 A3012 RMK A01 T02470136  RH  050%=      5-min Rain = 0
KFR1 040624Z 08008KT 25/14 A3012 RMK A01 T02470135  RH  050%=      5-min Rain = 0
KFR1 040625Z 07008KT 25/14 A3012 RMK A01 T02470135  RH  050%=      5-min Rain = 0
KFR1 040626Z 07008KT 25/14 A3012 RMK A01 T02470135  RH  050%=      5-min Rain = 0
KFR1 040627Z 07008KT 25/14 A3012 RMK A01 T02470135  RH  050%=      5-min Rain = 0
KFR1 040628Z 07007KT 25/14 A3012 RMK A01 T02470135  RH  049%=      5-min Rain = 0
KFR1 040629Z 07007KT 25/14 A3012 RMK A01 T02480135  RH  049%=      5-min Rain = 0
KFR1 040630Z 07008KT 25/13 A3012 RMK A01 T02470134  RH  049%=      5-min Rain = 0
KFR1 040631Z 07007KT 25/13 A3012 RMK A01 T02480134  RH  049%=      5-min Rain = 0
KFR1 040632Z 07008KT 25/13 A3012 RMK A01 T02480134  RH  049%=      5-min Rain = 0
KFR1 040633Z 07007KT 25/13 A3012 RMK A01 T02480134  RH  049%=      5-min Rain = 0
KFR1 040634Z 07008KT 25/13 A3012 RMK A01 T02480134  RH  049%=      5-min Rain = 0
KFR1 040635Z 07007KT 25/13 A3012 RMK A01 T02480134  RH  049%=      5-min Rain = 0
KFR1 040636Z 06008KT 25/13 A3012 RMK A01 T02480134  RH  049%=      5-min Rain = 0
KFR1 040637Z 06008KT 25/13 A3012 RMK A01 T02480134  RH  049%=      5-min Rain = 0
KFR1 040638Z 06007KT 25/13 A3012 RMK A01 T02480134  RH  049%=      5-min Rain = 0
KFR1 040639Z 07007KT 25/14 A3012 RMK A01 T02480135  RH  049%=      5-min Rain = 0
KFR1 040640Z 06006KT 25/13 A3012 RMK A01 T02470134  RH  049%=      5-min Rain = 0
KFR1 040641Z 07007KT 25/14 A3012 RMK A01 T02480135  RH  049%=      5-min Rain = 0
KFR1 040642Z 07006KT 25/14 A3012 RMK A01 T02470135  RH  050%=      5-min Rain = 0
KFR1 040643Z 07006KT 25/14 A3012 RMK A01 T02470135  RH  050%=      5-min Rain = 0
KFR1 040644Z 06007KT 25/14 A3012 RMK A01 T02470135  RH  050%=      5-min Rain = 0
KFR1 040645Z 07007KT 25/13 A3012 RMK A01 T02460134  RH  050%=      5-min Rain = 0
KFR1 040646Z 07007KT 25/13 A3012 RMK A01 T02470134  RH  050%=      5-min Rain = 0
KFR1 040647Z 07006KT 25/14 A3012 RMK A01 T02470135  RH  050%=      5-min Rain = 0
KFR1 040648Z 06007KT 25/13 A3012 RMK A01 T02470134  RH  049%=      5-min Rain = 0
KFR1 040649Z 07007KT 25/14 A3012 RMK A01 T02470135  RH  049%=      5-min Rain = 0
KFR1 040650Z 07006KT 25/14 A3012 RMK A01 T02470135  RH  049%=      5-min Rain = 0
KFR1 040651Z 07005KT 25/14 A3012 RMK A01 T02480135  RH  049%=      5-min Rain = 0
KFR1 040652Z 07006KT 25/14 A3012 RMK A01 T02480135  RH  050%=      5-min Rain = 0
KFR1 040653Z 08005KT 25/14 A3012 RMK A01 T02470135  RH  050%=      5-min Rain = 0
KFR1 040654Z 08005KT 25/14 A3012 RMK A01 T02470135  RH  050%=      5-min Rain = 0
KFR1 040655Z 08006KT 25/14 A3012 RMK A01 T02470135  RH  050%=      5-min Rain = 0
KFR1 040656Z 07004KT 25/13 A3012 RMK A01 T02470134  RH  049%=      5-min Rain = 0
KFR1 040657Z 07005KT 25/13 A3012 RMK A01 T02470134  RH  049%=      5-min Rain = 0
KFR1 040658Z 07005KT 25/13 A3012 RMK A01 T02470134  RH  049%=      5-min Rain = 0
KFR1 040659Z 07005KT 25/13 A3012 RMK A01 T02470134  RH  049%=      5-min Rain = 0
KFR1 040700Z 06006KT 25/13 A3012 RMK A01 T02470134  RH  049%=      5-min Rain = 0
KFR1 040701Z 05006KT 25/13 A3012 RMK A01 T02470134  RH  049%=      5-min Rain = 0
KFR1 040702Z 04006KT 25/13 A3013 RMK A01 T02470134  RH  049%=      5-min Rain = 0
KFR1 040703Z 04005KT 25/13 A3013 RMK A01 T02470134  RH  049%=      5-min Rain = 0
KFR1 040704Z 04005KT 25/14 A3013 RMK A01 T02480135  RH  049%=      5-min Rain = 0
KFR1 040705Z 03004KT 25/14 A3013 RMK A01 T02470135  RH  050%=      5-min Rain = 0
KFR1 040706Z 02006KT 25/14 A3013 RMK A01 T02470135  RH  050%=      5-min Rain = 0
KFR1 040707Z 03005KT 25/14 A3013 RMK A01 T02460135  RH  050%=      5-min Rain = 0
KFR1 040708Z 04006KT 25/14 A3013 RMK A01 T02470136  RH  050%=      5-min Rain = 0
KFR1 040709Z 03007KT 25/14 A3013 RMK A01 T02460136  RH  050%=      5-min Rain = 0
KFR1 040710Z 04007KT 25/14 A3013 RMK A01 T02460135  RH  050%=      5-min Rain = 0
KFR1 040711Z 04009KT 25/14 A3013 RMK A01 T02470135  RH  050%=      5-min Rain = 0
KFR1 040712Z 04010KT 25/13 A3013 RMK A01 T02480134  RH  049%=      5-min Rain = 0
KFR1 040713Z 05007KT 25/14 A3013 RMK A01 T02490135  RH  049%=      5-min Rain = 0
KFR1 040714Z 04008KT 25/14 A3013 RMK A01 T02490135  RH  049%=      5-min Rain = 0
KFR1 040715Z 04009KT 25/14 A3013 RMK A01 T02490135  RH  049%=      5-min Rain = 0
KFR1 040716Z 04010KT 25/14 A3013 RMK A01 T02490135  RH  049%=      5-min Rain = 0
KFR1 040717Z 05009KT 25/13 A3012 RMK A01 T02490134  RH  049%=      5-min Rain = 0
KFR1 040718Z 05009KT 25/14 A3012 RMK A01 T02500135  RH  049%=      5-min Rain = 0
KFR1 040719Z 05010KT 25/13 A3012 RMK A01 T02500134  RH  049%=      5-min Rain = 0
KFR1 040720Z 05009KT 25/13 A3012 RMK A01 T02500134  RH  049%=      5-min Rain = 0
KFR1 040721Z 05011KT 25/13 A3012 RMK A01 T02500134  RH  048%=      5-min Rain = 0
KFR1 040722Z 05010KT 25/13 A3012 RMK A01 T02500134  RH  048%=      5-min Rain = 0
KFR1 040723Z 05009KT 25/13 A3012 RMK A01 T02500134  RH  048%=      5-min Rain = 0
KFR1 040724Z 05010KT 25/13 A3012 RMK A01 T02500134  RH  048%=      5-min Rain = 0
KFR1 040725Z 05009KT 25/13 A3012 RMK A01 T02500134  RH  048%=      5-min Rain = 0
KFR1 040726Z 05010KT 25/13 A3011 RMK A01 T02500133  RH  048%=      5-min Rain = 0
KFR1 040727Z 05008KT 25/13 A3012 RMK A01 T02500133  RH  048%=      5-min Rain = 0
KFR1 040728Z 04010KT 25/13 A3012 RMK A01 T02500133  RH  048%=      5-min Rain = 0
KFR1 040729Z 05009KT 25/13 A3011 RMK A01 T02500133  RH  048%=      5-min Rain = 0
KFR1 040730Z 04008KT 25/13 A3011 RMK A01 T02500133  RH  048%=      5-min Rain = 0
KFR1 040731Z 04009KT 25/13 A3011 RMK A01 T02500134  RH  048%=      5-min Rain = 0
KFR1 040732Z 04009KT 25/13 A3011 RMK A01 T02500134  RH  048%=      5-min Rain = 0
KFR1 040733Z 04009KT 25/13 A3011 RMK A01 T02500134  RH  049%=      5-min Rain = 0
KFR1 040734Z 04008KT 25/13 A3011 RMK A01 T02500134  RH  049%=      5-min Rain = 0
KFR1 040735Z 04009KT 25/13 A3011 RMK A01 T02490134  RH  049%=      5-min Rain = 0
KFR1 040736Z 04009KT 25/13 A3011 RMK A01 T02490134  RH  049%=      5-min Rain = 0
KFR1 040737Z 04009KT 25/13 A3011 RMK A01 T02490134  RH  049%=      5-min Rain = 0
KFR1 040738Z 04011KT 25/13 A3011 RMK A01 T02490134  RH  049%=      5-min Rain = 0
KFR1 040739Z 04012KT 25/13 A3011 RMK A01 T02490133  RH  048%=      5-min Rain = 0
KFR1 040740Z 04011KT 25/13 A3011 RMK A01 T02510134  RH  048%=      5-min Rain = 0
KFR1 040741Z 04010KT 25/13 A3011 RMK A01 T02510134  RH  048%=      5-min Rain = 0
KFR1 040742Z 04011KT 25/13 A3011 RMK A01 T02510134  RH  048%=      5-min Rain = 0
KFR1 040743Z 04009KT 25/13 A3011 RMK A01 T02510134  RH  048%=      5-min Rain = 0
KFR1 040744Z 04009KT 25/13 A3011 RMK A01 T02500134  RH  048%=      5-min Rain = 0
KFR1 040745Z 05008KT 25/13 A3011 RMK A01 T02500134  RH  049%=      5-min Rain = 0
KFR1 040746Z 05009KT 25/13 A3011 RMK A01 T02500134  RH  049%=      5-min Rain = 0
KFR1 040747Z 04010KT 25/13 A3012 RMK A01 T02500134  RH  049%=      5-min Rain = 0
KFR1 040748Z 04012KT 25/13 A3011 RMK A01 T02500134  RH  049%=      5-min Rain = 0
KFR1 040749Z 04013KT 25/14 A3011 RMK A01 T02500135  RH  049%=      5-min Rain = 0
KFR1 040750Z 04012KT 25/13 A3011 RMK A01 T02500134  RH  048%=      5-min Rain = 0
KFR1 040751Z 04011G16KT 25/13 A3011 RMK A01 T02510134  RH  048%=      5-min Rain = 0
KFR1 040752Z 04012KT 25/13 A3011 RMK A01 T02510134  RH  048%=      5-min Rain = 0
KFR1 040753Z 04010KT 25/14 A3011 RMK A01 T02510135  RH  048%=      5-min Rain = 0
KFR1 040754Z 04010KT 25/14 A3012 RMK A01 T02500135  RH  049%=      5-min Rain = 0
KFR1 040755Z 06008KT 25/14 A3012 RMK A01 T02500135  RH  049%=      5-min Rain = 0
KFR1 040756Z 05010KT 25/13 A3012 RMK A01 T02500134  RH  049%=      5-min Rain = 0
KFR1 040757Z 05011KT 25/13 A3012 RMK A01 T02490134  RH  049%=      5-min Rain = 0
KFR1 040758Z 04013KT 25/14 A3011 RMK A01 T02490135  RH  049%=      5-min Rain = 0
KFR1 040759Z 05014KT 25/14 A3011 RMK A01 T02490135  RH  049%=      5-min Rain = 0
KFR1 040800Z 05015G20KT 25/14 A3011 RMK A01 T02500135  RH  049%=      5-min Rain = 0
KFR1 040801Z 04012KT 25/14 A3012 RMK A01 T02500135  RH  049%=      5-min Rain = 0
KFR1 040802Z 04012G17KT 25/14 A3012 RMK A01 T02500136  RH  049%=      5-min Rain = 0
KFR1 040803Z 04012G18KT 25/14 A3012 RMK A01 T02500137  RH  049%=      5-min Rain = 0
KFR1 040804Z 05013KT 25/14 A3012 RMK A01 T02490137  RH  050%=      5-min Rain = 0
KFR1 040805Z 05011KT 25/14 A3012 RMK A01 T02490138  RH  050%=      5-min Rain = 0
KFR1 040806Z 05015KT 25/14 A3012 RMK A01 T02490138  RH  050%=      5-min Rain = 0
KFR1 040807Z 05015KT 25/14 A3012 RMK A01 T02480138  RH  050%=      5-min Rain = 0
KFR1 040808Z 05012KT 25/14 A3012 RMK A01 T02480139  RH  051%=      5-min Rain = 0
KFR1 040809Z 05009KT 25/14 A3012 RMK A01 T02480139  RH  051%=      5-min Rain = 0
KFR1 040810Z 05011KT 25/14 A3012 RMK A01 T02470140  RH  051%=      5-min Rain = 0
KFR1 040811Z 05013KT 25/14 A3012 RMK A01 T02470140  RH  052%=      5-min Rain = 0
KFR1 040812Z 04011KT 25/14 A3012 RMK A01 T02460142  RH  052%=      5-min Rain = 0
KFR1 040813Z 05011KT 25/14 A3012 RMK A01 T02460142  RH  052%=      5-min Rain = 0
KFR1 040814Z 04010KT 25/14 A3012 RMK A01 T02450142  RH  053%=      5-min Rain = 0
KFR1 040815Z 05009KT 25/14 A3012 RMK A01 T02450143  RH  053%=      5-min Rain = 0
KFR1 040816Z 04010KT 25/14 A3012 RMK A01 T02450143  RH  053%=      5-min Rain = 0
KFR1 040817Z 05009KT 24/14 A3012 RMK A01 T02440143  RH  053%=      5-min Rain = 0
KFR1 040818Z 05013KT 24/14 A3012 RMK A01 T02440144  RH  054%=      5-min Rain = 0
KFR1 040819Z 06015G20KT 24/15 A3012 RMK A01 T02440145  RH  054%=      5-min Rain = 0
KFR1 040820Z 06014KT 24/15 A3012 RMK A01 T02440145  RH  054%=      5-min Rain = 0
KFR1 040821Z 05011KT 24/15 A3012 RMK A01 T02430146  RH  054%=      5-min Rain = 0
KFR1 040822Z 06011KT 24/15 A3012 RMK A01 T02430147  RH  055%=      5-min Rain = 0
KFR1 040823Z 06011KT 24/15 A3012 RMK A01 T02420147  RH  055%=      5-min Rain = 0
KFR1 040824Z 06009KT 24/15 A3012 RMK A01 T02420147  RH  056%=      5-min Rain = 0
KFR1 040825Z 05011KT 24/15 A3012 RMK A01 T02410148  RH  056%=      5-min Rain = 0
KFR1 040826Z 05013KT 24/15 A3012 RMK A01 T02410148  RH  056%=      5-min Rain = 0
KFR1 040827Z 05013KT 24/15 A3012 RMK A01 T02400148  RH  056%=      5-min Rain = 0
KFR1 040828Z 04012KT 24/15 A3012 RMK A01 T02400148  RH  057%=      5-min Rain = 0
KFR1 040829Z 05009KT 24/15 A3012 RMK A01 T02400149  RH  057%=      5-min Rain = 0
KFR1 040830Z 05010KT 24/15 A3012 RMK A01 T02400149  RH  057%=      5-min Rain = 0
KFR1 040831Z 05008KT 24/15 A3013 RMK A01 T02390149  RH  057%=      5-min Rain = 0
KFR1 040832Z 05010KT 24/15 A3013 RMK A01 T02390149  RH  057%=      5-min Rain = 0
KFR1 040833Z 05009KT 24/15 A3013 RMK A01 T02390150  RH  057%=      5-min Rain = 0
KFR1 040834Z 04009KT 24/15 A3013 RMK A01 T02390150  RH  058%=      5-min Rain = 0
KFR1 040835Z 04010KT 24/15 A3013 RMK A01 T02380150  RH  058%=      5-min Rain = 0
KFR1 040836Z 04010KT 24/15 A3013 RMK A01 T02380151  RH  058%=      5-min Rain = 0
KFR1 040837Z 05008KT 24/15 A3013 RMK A01 T02380151  RH  058%=      5-min Rain = 0
KFR1 040838Z 05008KT 24/15 A3013 RMK A01 T02380151  RH  058%=      5-min Rain = 0
KFR1 040839Z 05008KT 24/15 A3013 RMK A01 T02380151  RH  058%=      5-min Rain = 0
KFR1 040840Z 03005KT 24/15 A3013 RMK A01 T02380151  RH  058%=      5-min Rain = 0
KFR1 040841Z 04007KT 24/15 A3013 RMK A01 T02380151  RH  058%=      5-min Rain = 0
KFR1 040842Z 04007KT 24/15 A3013 RMK A01 T02380152  RH  059%=      5-min Rain = 0
KFR1 040843Z 04006KT 24/15 A3013 RMK A01 T02370152  RH  059%=      5-min Rain = 0
KFR1 040844Z 04007KT 24/15 A3013 RMK A01 T02370152  RH  059%=      5-min Rain = 0
KFR1 040845Z 04008KT 24/15 A3013 RMK A01 T02370151  RH  059%=      5-min Rain = 0
KFR1 040846Z 04007KT 24/15 A3013 RMK A01 T02370152  RH  059%=      5-min Rain = 0
KFR1 040847Z 04008KT 24/15 A3013 RMK A01 T02370152  RH  059%=      5-min Rain = 0
KFR1 040848Z 02005KT 24/15 A3013 RMK A01 T02370152  RH  059%=      5-min Rain = 0
KFR1 040849Z 03005G11KT 24/15 A3013 RMK A01 T02370153  RH  059%=      5-min Rain = 0
KFR1 040850Z 02010KT 24/15 A3013 RMK A01 T02360153  RH  060%=      5-min Rain = 0
KFR1 040851Z 03006G12KT 24/15 A3013 RMK A01 T02360154  RH  060%=      5-min Rain = 0
KFR1 040852Z 02007KT 24/16 A3013 RMK A01 T02360157  RH  061%=      5-min Rain = 0
KFR1 040853Z 02008KT 24/16 A3013 RMK A01 T02360159  RH  062%=      5-min Rain = 0
KFR1 040854Z 02008KT 24/16 A3013 RMK A01 T02360159  RH  062%=      5-min Rain = 0
KFR1 040855Z 03009KT 24/16 A3013 RMK A01 T02360161  RH  063%=      5-min Rain = 0
KFR1 040856Z 02008KT 24/16 A3013 RMK A01 T02360161  RH  063%=      5-min Rain = 0
KFR1 040857Z 01009KT 24/16 A3013 RMK A01 T02350160  RH  063%=      5-min Rain = 0
KFR1 040858Z 01010KT 24/16 A3013 RMK A01 T02350160  RH  063%=      5-min Rain = 0
KFR1 040859Z 01009KT 24/16 A3013 RMK A01 T02350159  RH  062%=      5-min Rain = 0
KFR1 040900Z 02008KT 24/16 A3013 RMK A01 T02350159  RH  062%=      5-min Rain = 0
KFR1 040901Z 03006KT 24/16 A3013 RMK A01 T02350159  RH  062%=      5-min Rain = 0
KFR1 040902Z 04010G15KT 23/16 A3013 RMK A01 T02340159  RH  063%=      5-min Rain = 0
KFR1 040903Z 04008KT 23/16 A3012 RMK A01 T02340159  RH  063%=      5-min Rain = 0
KFR1 040904Z 03009KT 23/16 A3012 RMK A01 T02330160  RH  064%=      5-min Rain = 0
KFR1 040905Z 04010KT 23/16 A3012 RMK A01 T02330160  RH  064%=      5-min Rain = 0
KFR1 040906Z 04010KT 23/16 A3012 RMK A01 T02320160  RH  064%=      5-min Rain = 0
KFR1 040907Z 05010KT 23/16 A3012 RMK A01 T02320159  RH  064%=      5-min Rain = 0
KFR1 040908Z 04012KT 23/16 A3012 RMK A01 T02310159  RH  064%=      5-min Rain = 0
KFR1 040909Z 04010KT 23/16 A3012 RMK A01 T02310159  RH  064%=      5-min Rain = 0
KFR1 040910Z 04011KT 23/16 A3012 RMK A01 T02310159  RH  064%=      5-min Rain = 0
KFR1 040911Z 04011KT 23/16 A3012 RMK A01 T02300160  RH  064%=      5-min Rain = 0
KFR1 040912Z 04010KT 23/16 A3012 RMK A01 T02300160  RH  065%=      5-min Rain = 0
KFR1 040913Z 03007KT 23/16 A3012 RMK A01 T02300161  RH  065%=      5-min Rain = 0
KFR1 040914Z 03009KT 23/16 A3012 RMK A01 T02290162  RH  066%=      5-min Rain = 0
KFR1 040915Z 04009KT 23/16 A3012 RMK A01 T02290162  RH  066%=      5-min Rain = 0
KFR1 040916Z 04008KT 23/16 A3012 RMK A01 T02290163  RH  066%=      5-min Rain = 0
KFR1 040917Z 04010KT 23/16 A3012 RMK A01 T02280164  RH  067%=      5-min Rain = 0
KFR1 040918Z 03010KT 23/16 A3012 RMK A01 T02280164  RH  067%=      5-min Rain = 0
KFR1 040919Z 04009KT 23/17 A3012 RMK A01 T02280165  RH  067%=      5-min Rain = 0
KFR1 040920Z 03008KT 23/17 A3012 RMK A01 T02280165  RH  068%=      5-min Rain = 0
KFR1 040921Z 03008KT 23/17 A3012 RMK A01 T02270165  RH  068%=      5-min Rain = 0
KFR1 040922Z 03009G15KT 23/17 A3012 RMK A01 T02270165  RH  068%=      5-min Rain = 0
KFR1 040923Z 04012G17KT 23/16 A3012 RMK A01 T02270164  RH  068%=      5-min Rain = 0
KFR1 040924Z 04011KT 23/16 A3012 RMK A01 T02270163  RH  067%=      5-min Rain = 0
KFR1 040925Z 03010G15KT 23/16 A3012 RMK A01 T02260163  RH  067%=      5-min Rain = 0
KFR1 040926Z 04010KT 23/16 A3012 RMK A01 T02260163  RH  067%=      5-min Rain = 0
KFR1 040927Z 03010KT 23/16 A3012 RMK A01 T02270164  RH  068%=      5-min Rain = 0
KFR1 040928Z 04009KT 23/16 A3012 RMK A01 T02260163  RH  068%=      5-min Rain = 0
KFR1 040929Z 02007KT 23/16 A3012 RMK A01 T02260164  RH  068%=      5-min Rain = 0
KFR1 040930Z 02006KT 23/16 A3012 RMK A01 T02260164  RH  068%=      5-min Rain = 0
KFR1 040931Z 02011KT 23/16 A3012 RMK A01 T02250163  RH  068%=      5-min Rain = 0
KFR1 040932Z 02009KT 23/16 A3012 RMK A01 T02250162  RH  068%=      5-min Rain = 0
KFR1 040933Z 02007KT 23/16 A3012 RMK A01 T02250163  RH  068%=      5-min Rain = 0
KFR1 040934Z 02006KT 23/16 A3012 RMK A01 T02250163  RH  068%=      5-min Rain = 0
KFR1 040935Z 02005KT 23/16 A3012 RMK A01 T02250163  RH  068%=      5-min Rain = 0
KFR1 040936Z 03008KT 22/16 A3012 RMK A01 T02240163  RH  068%=      5-min Rain = 0
KFR1 040937Z 03007KT 22/16 A3012 RMK A01 T02240163  RH  068%=      5-min Rain = 0
KFR1 040938Z 02007KT 22/16 A3012 RMK A01 T02240163  RH  068%=      5-min Rain = 0
KFR1 040939Z 01008KT 22/16 A3012 RMK A01 T02240164  RH  069%=      5-min Rain = 0
KFR1 040940Z 02011KT 22/16 A3012 RMK A01 T02240163  RH  068%=      5-min Rain = 0
KFR1 040941Z 04010KT 22/16 A3012 RMK A01 T02240163  RH  068%=      5-min Rain = 0
KFR1 040942Z 04005KT 22/16 A3013 RMK A01 T02240164  RH  069%=      5-min Rain = 0
KFR1 040943Z 04006KT 22/16 A3013 RMK A01 T02240164  RH  069%=      5-min Rain = 0
KFR1 040944Z 04008KT 22/16 A3012 RMK A01 T02240164  RH  069%=      5-min Rain = 0
KFR1 040945Z 04009KT 22/16 A3012 RMK A01 T02240163  RH  068%=      5-min Rain = 0
KFR1 040946Z 03009KT 22/16 A3012 RMK A01 T02240162  RH  068%=      5-min Rain = 0
KFR1 040947Z 05007KT 22/16 A3012 RMK A01 T02240162  RH  068%=      5-min Rain = 0
KFR1 040948Z 04006KT 22/16 A3012 RMK A01 T02240161  RH  068%=      5-min Rain = 0
KFR1 040949Z 04008KT 22/16 A3012 RMK A01 T02240161  RH  068%=      5-min Rain = 0
KFR1 040950Z 03006KT 22/16 A3012 RMK A01 T02240161  RH  068%=      5-min Rain = 0
KFR1 040951Z 05007KT 22/16 A3012 RMK A01 T02240162  RH  068%=      5-min Rain = 0
KFR1 040952Z 04006KT 22/16 A3012 RMK A01 T02240161  RH  068%=      5-min Rain = 0
KFR1 040953Z 03007KT 22/16 A3012 RMK A01 T02230161  RH  068%=      5-min Rain = 0
KFR1 040954Z 02006KT 22/16 A3012 RMK A01 T02230161  RH  068%=      5-min Rain = 0
KFR1 040955Z 02006KT 22/16 A3012 RMK A01 T02230161  RH  068%=      5-min Rain = 0
KFR1 040956Z 02006KT 22/16 A3012 RMK A01 T02230161  RH  068%=      5-min Rain = 0
KFR1 040957Z 02005KT 22/16 A3012 RMK A01 T02230161  RH  068%=      5-min Rain = 0
KFR1 040958Z 01005KT 22/16 A3012 RMK A01 T02230161  RH  068%=      5-min Rain = 0
KFR1 040959Z 01004KT 22/16 A3012 RMK A01 T02230161  RH  068%=      5-min Rain = 0
KFR1 041000Z 01003KT 22/16 A3012 RMK A01 T02230162  RH  068%=      5-min Rain = 0
KFR1 041001Z 01003KT 22/16 A3012 RMK A01 T02230162  RH  068%=      5-min Rain = 0
KFR1 041002Z 01004KT 22/16 A3012 RMK A01 T02230162  RH  069%=      5-min Rain = 0
KFR1 041003Z 36004KT 22/16 A3012 RMK A01 T02230163  RH  069%=      5-min Rain = 0
KFR1 041004Z 02005KT 22/16 A3013 RMK A01 T02220162  RH  069%=      5-min Rain = 0
KFR1 041005Z 35006KT 22/16 A3013 RMK A01 T02230162  RH  069%=      5-min Rain = 0
KFR1 041006Z 36005KT 22/16 A3013 RMK A01 T02230163  RH  069%=      5-min Rain = 0
KFR1 041007Z 35005KT 22/16 A3013 RMK A01 T02230164  RH  069%=      5-min Rain = 0
KFR1 041008Z 34005KT 22/16 A3013 RMK A01 T02230164  RH  069%=      5-min Rain = 0
KFR1 041009Z 34005KT 22/16 A3013 RMK A01 T02230164  RH  069%=      5-min Rain = 0
KFR1 041010Z 32006KT 22/16 A3013 RMK A01 T02230164  RH  069%=      5-min Rain = 0
KFR1 041011Z 31006KT 22/16 A3013 RMK A01 T02230164  RH  070%=      5-min Rain = 0
KFR1 041012Z 32006KT 22/16 A3013 RMK A01 T02220164  RH  069%=      5-min Rain = 0
KFR1 041013Z 32004KT 22/16 A3013 RMK A01 T02210164  RH  070%=      5-min Rain = 0
KFR1 041014Z 33007KT 22/16 A3013 RMK A01 T02210163  RH  070%=      5-min Rain = 0
KFR1 041015Z 33007KT 22/16 A3013 RMK A01 T02210162  RH  069%=      5-min Rain = 0
KFR1 041016Z 34007KT 22/16 A3013 RMK A01 T02200162  RH  070%=      5-min Rain = 0
KFR1 041017Z 34005KT 22/16 A3013 RMK A01 T02190161  RH  070%=      5-min Rain = 0
KFR1 041018Z 34007KT 22/16 A3013 RMK A01 T02180161  RH  070%=      5-min Rain = 0
KFR1 041019Z 34007KT 22/16 A3013 RMK A01 T02180162  RH  071%=      5-min Rain = 0
KFR1 041020Z 34005KT 22/16 A3013 RMK A01 T02170162  RH  071%=      5-min Rain = 0
KFR1 041021Z 33007KT 22/16 A3013 RMK A01 T02170162  RH  071%=      5-min Rain = 0
KFR1 041022Z 34007KT 22/16 A3013 RMK A01 T02170161  RH  071%=      5-min Rain = 0
KFR1 041023Z 33007KT 22/16 A3013 RMK A01 T02170163  RH  071%=      5-min Rain = 0
KFR1 041024Z 33008KT 22/16 A3013 RMK A01 T02160163  RH  072%=      5-min Rain = 0
KFR1 041025Z 34009KT 22/16 A3013 RMK A01 T02160163  RH  072%=      5-min Rain = 0
KFR1 041026Z 33008KT 22/16 A3013 RMK A01 T02160163  RH  072%=      5-min Rain = 0
KFR1 041027Z 34008G13KT 22/16 A3013 RMK A01 T02160163  RH  072%=      5-min Rain = 0
KFR1 041028Z 34007KT 22/16 A3013 RMK A01 T02160162  RH  071%=      5-min Rain = 0
KFR1 041029Z 34008KT 22/16 A3013 RMK A01 T02160160  RH  071%=      5-min Rain = 0
KFR1 041030Z 34008KT 22/16 A3013 RMK A01 T02160160  RH  071%=      5-min Rain = 0
KFR1 041031Z 34007KT 22/16 A3013 RMK A01 T02160160  RH  071%=      5-min Rain = 0
KFR1 041032Z 34006KT 22/16 A3013 RMK A01 T02160160  RH  070%=      5-min Rain = 0
KFR1 041033Z 34005KT 22/16 A3013 RMK A01 T02160160  RH  071%=      5-min Rain = 0
KFR1 041034Z 35006KT 22/16 A3013 RMK A01 T02160160  RH  071%=      5-min Rain = 0
KFR1 041035Z 34005KT 22/16 A3013 RMK A01 T02150160  RH  071%=      5-min Rain = 0
KFR1 041036Z 34007KT 22/16 A3013 RMK A01 T02160160  RH  071%=      5-min Rain = 0
KFR1 041037Z 35005KT 22/16 A3013 RMK A01 T02160160  RH  071%=      5-min Rain = 0
KFR1 041038Z 35007KT 22/16 A3013 RMK A01 T02160161  RH  071%=      5-min Rain = 0
KFR1 041039Z 35007KT 22/16 A3013 RMK A01 T02160161  RH  071%=      5-min Rain = 0
KFR1 041040Z 34004KT 22/16 A3013 RMK A01 T02160162  RH  071%=      5-min Rain = 0
KFR1 041041Z 34005KT 22/16 A3013 RMK A01 T02160162  RH  071%=      5-min Rain = 0
KFR1 041042Z 34006KT 22/16 A3013 RMK A01 T02160162  RH  071%=      5-min Rain = 0
KFR1 041043Z 34008KT 22/16 A3013 RMK A01 T02160162  RH  071%=      5-min Rain = 0
KFR1 041044Z 33007G12KT 22/16 A3013 RMK A01 T02160161  RH  071%=      5-min Rain = 0
KFR1 041045Z 33007KT 22/16 A3013 RMK A01 T02150160  RH  070%=      5-min Rain = 0
KFR1 041046Z 33006G11KT 22/16 A3013 RMK A01 T02160160  RH  071%=      5-min Rain = 0
KFR1 041047Z 33011KT 22/16 A3013 RMK A01 T02160160  RH  071%=      5-min Rain = 0
KFR1 041048Z 34007KT 22/16 A3013 RMK A01 T02160160  RH  071%=      5-min Rain = 0
KFR1 041049Z 34008KT 22/16 A3013 RMK A01 T02160161  RH  071%=      5-min Rain = 0
KFR1 041050Z 35007KT 22/16 A3013 RMK A01 T02160162  RH  072%=      5-min Rain = 0
KFR1 041051Z 35006KT 22/16 A3013 RMK A01 T02150163  RH  072%=      5-min Rain = 0
KFR1 041052Z 35007KT 22/16 A3013 RMK A01 T02150162  RH  072%=      5-min Rain = 0
KFR1 041053Z 33007KT 22/16 A3013 RMK A01 T02150162  RH  072%=      5-min Rain = 0
KFR1 041054Z 34006KT 21/16 A3013 RMK A01 T02140162  RH  072%=      5-min Rain = 0
KFR1 041055Z 34005KT 21/16 A3013 RMK A01 T02140162  RH  072%=      5-min Rain = 0
KFR1 041056Z 34005KT 21/16 A3013 RMK A01 T02130162  RH  073%=      5-min Rain = 0
KFR1 041057Z 34005KT 21/16 A3013 RMK A01 T02130163  RH  073%=      5-min Rain = 0
KFR1 041058Z 34004KT 21/16 A3013 RMK A01 T02120162  RH  073%=      5-min Rain = 0
KFR1 041059Z 33006KT 21/16 A3013 RMK A01 T02120162  RH  073%=      5-min Rain = 0
KFR1 041100Z 34004KT 21/16 A3013 RMK A01 T02120162  RH  073%=      5-min Rain = 0
KFR1 041101Z 35004KT 21/16 A3013 RMK A01 T02120163  RH  074%=      5-min Rain = 0
KFR1 041102Z 34003KT 21/16 A3013 RMK A01 T02110163  RH  074%=      5-min Rain = 0
KFR1 041103Z 34004KT 21/16 A3013 RMK A01 T02110163  RH  074%=      5-min Rain = 0
KFR1 041104Z 33005KT 21/16 A3013 RMK A01 T02110163  RH  074%=      5-min Rain = 0
KFR1 041105Z 33006KT 21/16 A3013 RMK A01 T02110163  RH  074%=      5-min Rain = 0
KFR1 041106Z 34006KT 21/16 A3013 RMK A01 T02110163  RH  074%=      5-min Rain = 0
KFR1 041107Z 33004KT 21/16 A3013 RMK A01 T02110162  RH  074%=      5-min Rain = 0
KFR1 041108Z 32006KT 21/16 A3013 RMK A01 T02110162  RH  073%=      5-min Rain = 0
KFR1 041109Z 33008KT 21/16 A3013 RMK A01 T02110161  RH  073%=      5-min Rain = 0
KFR1 041110Z 32006KT 21/16 A3013 RMK A01 T02110161  RH  073%=      5-min Rain = 0
KFR1 041111Z 32005KT 21/16 A3013 RMK A01 T02110161  RH  073%=      5-min Rain = 0
KFR1 041112Z 32005KT 21/16 A3013 RMK A01 T02120162  RH  073%=      5-min Rain = 0
KFR1 041113Z 31005KT 21/16 A3013 RMK A01 T02120163  RH  073%=      5-min Rain = 0
KFR1 041114Z 30005KT 21/16 A3013 RMK A01 T02120163  RH  073%=      5-min Rain = 0
KFR1 041115Z 31005KT 21/16 A3013 RMK A01 T02110163  RH  074%=      5-min Rain = 0
KFR1 041116Z 31006KT 21/16 A3013 RMK A01 T02120162  RH  073%=      5-min Rain = 0
KFR1 041117Z 30004KT 21/16 A3013 RMK A01 T02120163  RH  073%=      5-min Rain = 0
KFR1 041118Z 31005KT 21/16 A3013 RMK A01 T02120163  RH  073%=      5-min Rain = 0
KFR1 041119Z 31004KT 21/16 A3014 RMK A01 T02130164  RH  074%=      5-min Rain = 0
KFR1 041120Z 31004KT 21/16 A3014 RMK A01 T02130164  RH  074%=      5-min Rain = 0
KFR1 041121Z 32004KT 21/16 A3014 RMK A01 T02130164  RH  074%=      5-min Rain = 0
KFR1 041122Z 31004KT 21/16 A3014 RMK A01 T02130164  RH  073%=      5-min Rain = 0
KFR1 041123Z 31005KT 21/16 A3013 RMK A01 T02130164  RH  073%=      5-min Rain = 0
KFR1 041124Z 30005KT 21/16 A3013 RMK A01 T02130163  RH  073%=      5-min Rain = 0
KFR1 041125Z 30003KT 21/16 A3013 RMK A01 T02130162  RH  073%=      5-min Rain = 0
KFR1 041126Z 33004KT 21/16 A3013 RMK A01 T02130162  RH  073%=      5-min Rain = 0
KFR1 041127Z 32004KT 21/16 A3013 RMK A01 T02130162  RH  073%=      5-min Rain = 0
KFR1 041128Z 30005KT 21/16 A3013 RMK A01 T02130163  RH  073%=      5-min Rain = 0
KFR1 041129Z 32006KT 21/16 A3013 RMK A01 T02130161  RH  072%=      5-min Rain = 0
KFR1 041130Z 32005KT 21/16 A3013 RMK A01 T02130160  RH  072%=      5-min Rain = 0
KFR1 041131Z 32003KT 21/16 A3013 RMK A01 T02130160  RH  072%=      5-min Rain = 0
KFR1 041132Z 32004KT 21/16 A3013 RMK A01 T02140161  RH  072%=      5-min Rain = 0
KFR1 041133Z 32003KT 21/16 A3013 RMK A01 T02130161  RH  072%=      5-min Rain = 0
KFR1 041134Z 34004KT 21/16 A3013 RMK A01 T02130161  RH  072%=      5-min Rain = 0
KFR1 041135Z 32003KT 21/16 A3012 RMK A01 T02130161  RH  072%=      5-min Rain = 0
KFR1 041136Z 32003KT 21/16 A3012 RMK A01 T02130161  RH  072%=      5-min Rain = 0
KFR1 041137Z 32003KT 21/16 A3012 RMK A01 T02130161  RH  072%=      5-min Rain = 0
KFR1 041138Z 32003KT 21/16 A3012 RMK A01 T02130162  RH  072%=      5-min Rain = 0
KFR1 041139Z 32003KT 21/16 A3012 RMK A01 T02130162  RH  073%=      5-min Rain = 0
KFR1 041140Z 32004KT 21/16 A3012 RMK A01 T02130161  RH  072%=      5-min Rain = 0
KFR1 041141Z 33003KT 21/16 A3012 RMK A01 T02130162  RH  073%=      5-min Rain = 0
KFR1 041142Z 32002KT 21/16 A3012 RMK A01 T02130161  RH  072%=      5-min Rain = 0
KFR1 041143Z 32002KT 21/16 A3012 RMK A01 T02130161  RH  072%=      5-min Rain = 0
KFR1 041144Z 33002KT 21/16 A3012 RMK A01 T02130162  RH  073%=      5-min Rain = 0
KFR1 041145Z 32003KT 21/16 A3012 RMK A01 T02130161  RH  072%=      5-min Rain = 0
KFR1 041146Z 33002KT 21/16 A3012 RMK A01 T02130161  RH  072%=      5-min Rain = 0
KFR1 041147Z 33002KT 21/16 A3012 RMK A01 T02130160  RH  072%=      5-min Rain = 0
KFR1 041148Z 32002KT 21/16 A3012 RMK A01 T02130160  RH  072%=      5-min Rain = 0
KFR1 041149Z 31001KT 21/16 A3012 RMK A01 T02130160  RH  072%=      5-min Rain = 0
KFR1 041150Z 32002KT 21/16 A3011 RMK A01 T02130160  RH  071%=      5-min Rain = 0
KFR1 041151Z 32002KT 21/16 A3011 RMK A01 T02130160  RH  071%=      5-min Rain = 0
KFR1 041152Z 34002KT 21/16 A3011 RMK A01 T02130159  RH  071%=      5-min Rain = 0
KFR1 041153Z 33003KT 21/16 A3011 RMK A01 T02140159  RH  071%=      5-min Rain = 0
KFR1 041154Z 33003KT 21/16 A3011 RMK A01 T02140159  RH  071%=      5-min Rain = 0
KFR1 041155Z 33003KT 21/16 A3011 RMK A01 T02140159  RH  071%=      5-min Rain = 0
KFR1 041156Z 32004KT 21/16 A3011 RMK A01 T02140160  RH  071%=      5-min Rain = 0
KFR1 041157Z 33003KT 22/16 A3011 RMK A01 T02150160  RH  071%=      5-min Rain = 0
KFR1 041158Z 33003KT 22/16 A3011 RMK A01 T02150160  RH  071%=      5-min Rain = 0
KFR1 041159Z 32003KT 22/16 A3011 RMK A01 T02150160  RH  071%=      5-min Rain = 0
KFR1 041200Z 32003KT 22/16 A3011 RMK A01 T02150160  RH  071%=      5-min Rain = 0
KFR1 041201Z 32003KT 22/16 A3011 RMK A01 T02150159  RH  070%=      5-min Rain = 0
KFR1 041202Z 33003KT 22/16 A3011 RMK A01 T02150159  RH  070%=      5-min Rain = 0
KFR1 041203Z 32003KT 22/16 A3011 RMK A01 T02150158  RH  070%=      5-min Rain = 0
KFR1 041204Z 32003KT 22/16 A3011 RMK A01 T02160158  RH  070%=      5-min Rain = 0
KFR1 041205Z 31003KT 22/16 A3011 RMK A01 T02160159  RH  070%=      5-min Rain = 0
KFR1 041206Z 31002KT 22/16 A3011 RMK A01 T02160159  RH  070%=      5-min Rain = 0
KFR1 041207Z 32003KT 22/16 A3011 RMK A01 T02160159  RH  070%=      5-min Rain = 0
KFR1 041208Z 32004KT 22/16 A3011 RMK A01 T02160158  RH  070%=      5-min Rain = 0
KFR1 041209Z 31002KT 22/16 A3011 RMK A01 T02160158  RH  070%=      5-min Rain = 0
KFR1 041210Z 31002KT 22/16 A3011 RMK A01 T02160158  RH  070%=      5-min Rain = 0
KFR1 041211Z 31002KT 22/16 A3011 RMK A01 T02160159  RH  070%=      5-min Rain = 0
KFR1 041212Z 32002KT 22/16 A3011 RMK A01 T02160158  RH  070%=      5-min Rain = 0
KFR1 041213Z 31002KT 22/16 A3011 RMK A01 T02160158  RH  070%=      5-min Rain = 0
KFR1 041214Z 31002KT 22/16 A3011 RMK A01 T02160158  RH  070%=      5-min Rain = 0
KFR1 041215Z 31003KT 22/16 A3011 RMK A01 T02160158  RH  070%=      5-min Rain = 0
KFR1 041216Z 31003KT 22/16 A3011 RMK A01 T02160158  RH  070%=      5-min Rain = 0
KFR1 041217Z 31003KT 22/16 A3011 RMK A01 T02170158  RH  069%=      5-min Rain = 0
KFR1 041218Z 32003KT 22/16 A3011 RMK A01 T02170158  RH  069%=      5-min Rain = 0
KFR1 041219Z 31003KT 22/16 A3011 RMK A01 T02170158  RH  070%=      5-min Rain = 0
KFR1 041220Z 30002KT 22/16 A3011 RMK A01 T02160158  RH  070%=      5-min Rain = 0
KFR1 041221Z 29002KT 22/16 A3011 RMK A01 T02160158  RH  070%=      5-min Rain = 0
KFR1 041222Z 29002KT 22/16 A3011 RMK A01 T02160159  RH  070%=      5-min Rain = 0
KFR1 041223Z 29002KT 22/16 A3011 RMK A01 T02170159  RH  070%=      5-min Rain = 0
KFR1 041224Z 29001KT 22/16 A3011 RMK A01 T02170160  RH  070%=      5-min Rain = 0
KFR1 041225Z 27002KT 22/16 A3011 RMK A01 T02170160  RH  070%=      5-min Rain = 0
KFR1 041226Z 27001KT 22/16 A3011 RMK A01 T02170160  RH  070%=      5-min Rain = 0
KFR1 041227Z 27002KT 22/16 A3011 RMK A01 T02170160  RH  070%=      5-min Rain = 0
KFR1 041228Z 33002KT 22/16 A3011 RMK A01 T02170159  RH  069%=      5-min Rain = 0
KFR1 041229Z 34001KT 22/16 A3011 RMK A01 T02170157  RH  068%=      5-min Rain = 0
KFR1 041230Z 28001KT 22/16 A3011 RMK A01 T02180158  RH  069%=      5-min Rain = 0
KFR1 041231Z 31002KT 22/16 A301 RMK A01 T02180160  RH  069%=      5-min Rain = 0
KFR1 041232Z 30001KT 22/16 A301 RMK A01 T02180160  RH  069%=      5-min Rain = 0
KFR1 041233Z 31000KT 22/16 A301 RMK A01 T02180160  RH  070%=      5-min Rain = 0
KFR1 041234Z 31001KT 22/16 A301 RMK A01 T02180160  RH  070%=      5-min Rain = 0
KFR1 041235Z 31001KT 22/16 A301 RMK A01 T02180159  RH  069%=      5-min Rain = 0
KFR1 041236Z 31000KT 22/16 A301 RMK A01 T02180160  RH  069%=      5-min Rain = 0
KFR1 041237Z 33000KT 22/16 A301 RMK A01 T02180159  RH  069%=      5-min Rain = 0
KFR1 041238Z 00000KT 22/16 A301 RMK A01 T02180161  RH  070%=      5-min Rain = 0
KFR1 041239Z 00000KT 22/16 A301 RMK A01 T02180160  RH  070%=      5-min Rain = 0
KFR1 041240Z 00000KT 22/16 A301 RMK A01 T02180162  RH  070%=      5-min Rain = 0
KFR1 041241Z 20000KT 22/16 A301 RMK A01 T02180163  RH  071%=      5-min Rain = 0
KFR1 041242Z 19001KT 22/17 A301 RMK A01 T02180166  RH  072%=      5-min Rain = 0
KFR1 041243Z 18001KT 22/16 A301 RMK A01 T02180164  RH  071%=      5-min Rain = 0
KFR1 041244Z 16001KT 22/17 A301 RMK A01 T02180167  RH  073%=      5-min Rain = 0
KFR1 041245Z 15001KT 22/16 A301 RMK A01 T02170164  RH  072%=      5-min Rain = 0
KFR1 041246Z 14001KT 22/16 A301 RMK A01 T02170163  RH  071%=      5-min Rain = 0
KFR1 041247Z 14001KT 22/16 A301 RMK A01 T02170163  RH  071%=      5-min Rain = 0
KFR1 041248Z 16001KT 22/17 A301 RMK A01 T02170165  RH  072%=      5-min Rain = 0
KFR1 041249Z 19001KT 22/17 A301 RMK A01 T02170170  RH  075%=      5-min Rain = 0
KFR1 041250Z 21002KT 22/17 A301 RMK A01 T02160174  RH  077%=      5-min Rain = 0
KFR1 041251Z 21002KT 22/17 A301 RMK A01 T02150174  RH  077%=      5-min Rain = 0
KFR1 041252Z 21002KT 21/17 A301 RMK A01 T02140172  RH  077%=      5-min Rain = 0
KFR1 041253Z 20002KT 21/18 A301 RMK A01 T02130175  RH  079%=      5-min Rain = 0
KFR1 041254Z 20002KT 21/18 A301 RMK A01 T02130178  RH  080%=      5-min Rain = 0
KFR1 041255Z 20002KT 21/18 A301 RMK A01 T02120175  RH  079%=      5-min Rain = 0
KFR1 041256Z 19003KT 21/18 A3009 RMK A01 T02120175  RH  079%=      5-min Rain = 0
KFR1 041257Z 19002KT 21/17 A3009 RMK A01 T02110174  RH  079%=      5-min Rain = 0
KFR1 041258Z 18002KT 21/18 A3009 RMK A01 T02100178  RH  082%=      5-min Rain = 0
KFR1 041259Z 18003KT 21/18 A3009 RMK A01 T02100177  RH  081%=      5-min Rain = 0
KFR1 041300Z 18002KT 21/18 A3009 RMK A01 T02100175  RH  081%=      5-min Rain = 0
KFR1 041301Z 18002KT 21/18 A3009 RMK A01 T02090175  RH  081%=      5-min Rain = 0
KFR1 041302Z 18002KT 21/17 A3009 RMK A01 T02090174  RH  080%=      5-min Rain = 0
KFR1 041303Z 18003KT 21/18 A3009 RMK A01 T02080175  RH  081%=      5-min Rain = 0
KFR1 041304Z 18003KT 21/18 A3009 RMK A01 T02080178  RH  083%=      5-min Rain = 0
KFR1 041305Z 18003KT 21/18 A3009 RMK A01 T02080177  RH  083%=      5-min Rain = 0
KFR1 041306Z 18004KT 21/18 A3009 RMK A01 T02080179  RH  084%=      5-min Rain = 0
KFR1 041307Z 18004KT 21/18 A3009 RMK A01 T02070178  RH  083%=      5-min Rain = 0
KFR1 041308Z 18004KT 21/18 A3008 RMK A01 T02070179  RH  084%=      5-min Rain = 0
KFR1 041309Z 17004KT 21/18 A3008 RMK A01 T02070179  RH  084%=      5-min Rain = 0
KFR1 041310Z 17004KT 21/18 A3008 RMK A01 T02080181  RH  084%=      5-min Rain = 0
KFR1 041311Z 17004KT 21/18 A3008 RMK A01 T02070180  RH  084%=      5-min Rain = 0
KFR1 041312Z 17004KT 21/18 A3008 RMK A01 T02070180  RH  084%=      5-min Rain = 0
KFR1 041313Z 18004KT 21/18 A3008 RMK A01 T02070179  RH  084%=      5-min Rain = 0
KFR1 041314Z 19004KT 21/18 A3008 RMK A01 T02070180  RH  084%=      5-min Rain = 0
KFR1 041315Z 20005KT 21/18 A3008 RMK A01 T02080182  RH  085%=      5-min Rain = 0
KFR1 041316Z 21004KT 21/18 A3009 RMK A01 T02080183  RH  085%=      5-min Rain = 0
KFR1 041317Z 21004KT 21/18 A3009 RMK A01 T02080181  RH  084%=      5-min Rain = 0
KFR1 041318Z 21004KT 21/18 A3008 RMK A01 T02080177  RH  083%=      5-min Rain = 0
KFR1 041319Z 20004KT 21/18 A3008 RMK A01 T02080177  RH  083%=      5-min Rain = 0
KFR1 041320Z 20004KT 21/18 A3008 RMK A01 T02080178  RH  083%=      5-min Rain = 0
KFR1 041321Z 21004KT 21/18 A3008 RMK A01 T02090178  RH  083%=      5-min Rain = 0
KFR1 041322Z 21004KT 21/18 A3008 RMK A01 T02100177  RH  082%=      5-min Rain = 0
KFR1 041323Z 20004KT 21/18 A3008 RMK A01 T02100178  RH  082%=      5-min Rain = 0
KFR1 041324Z 20004KT 21/18 A3008 RMK A01 T02110181  RH  083%=      5-min Rain = 0
KFR1 041325Z 19004KT 21/18 A3008 RMK A01 T02110181  RH  083%=      5-min Rain = 0
KFR1 041326Z 19005KT 21/18 A3008 RMK A01 T02110181  RH  083%=      5-min Rain = 0
KFR1 041327Z 19005KT 21/18 A3008 RMK A01 T02110179  RH  082%=      5-min Rain = 0
KFR1 041328Z 19005KT 21/18 A3008 RMK A01 T02110180  RH  083%=      5-min Rain = 0
KFR1 041329Z 19006KT 21/18 A3008 RMK A01 T02110181  RH  083%=      5-min Rain = 0
KFR1 041330Z 18006KT 21/18 A3008 RMK A01 T02110180  RH  082%=      5-min Rain = 0
KFR1 041331Z 19006KT 21/18 A3008 RMK A01 T02120181  RH  082%=      5-min Rain = 0
KFR1 041332Z 19006KT 21/18 A3008 RMK A01 T02120183  RH  084%=      5-min Rain = 0
KFR1 041333Z 19005KT 21/18 A3007 RMK A01 T02120182  RH  083%=      5-min Rain = 0
KFR1 041334Z 18005KT 21/18 A3007 RMK A01 T02120184  RH  084%=      5-min Rain = 0
KFR1 041335Z 18004KT 21/18 A3007 RMK A01 T02120182  RH  083%=      5-min Rain = 0
KFR1 041336Z 19004KT 21/18 A3007 RMK A01 T02130183  RH  083%=      5-min Rain = 0
KFR1 041337Z 19005KT 21/18 A3007 RMK A01 T02130184  RH  083%=      5-min Rain = 0
KFR1 041338Z 19005KT 21/19 A3007 RMK A01 T02130186  RH  085%=      5-min Rain = 0
KFR1 041339Z 18005KT 21/18 A3007 RMK A01 T02130183  RH  083%=      5-min Rain = 0
KFR1 041340Z 18006KT 21/18 A3007 RMK A01 T02130182  RH  082%=      5-min Rain = 0
KFR1 041341Z 18005KT 21/18 A3007 RMK A01 T02140182  RH  082%=      5-min Rain = 0
KFR1 041342Z 18006KT 21/18 A3007 RMK A01 T02140180  RH  081%=      5-min Rain = 0
KFR1 041343Z 18005KT 21/18 A3007 RMK A01 T02140179  RH  081%=      5-min Rain = 0
KFR1 041344Z 17006KT 21/18 A3007 RMK A01 T02140180  RH  081%=      5-min Rain = 0
KFR1 041345Z 17006KT 22/18 A3007 RMK A01 T02150177  RH  079%=      5-min Rain = 0
KFR1 041346Z 17006KT 22/18 A3007 RMK A01 T02150179  RH  080%=      5-min Rain = 0
KFR1 041347Z 17007KT 22/18 A3007 RMK A01 T02150177  RH  079%=      5-min Rain = 0
KFR1 041348Z 17005KT 22/18 A3007 RMK A01 T02150176  RH  078%=      5-min Rain = 0
KFR1 041349Z 17004KT 22/18 A3007 RMK A01 T02150177  RH  079%=      5-min Rain = 0
KFR1 041350Z 17005KT 22/18 A3007 RMK A01 T02160179  RH  079%=      5-min Rain = 0
KFR1 041351Z 17005KT 22/18 A3007 RMK A01 T02160179  RH  079%=      5-min Rain = 0
KFR1 041352Z 17004KT 22/18 A3007 RMK A01 T02160178  RH  079%=      5-min Rain = 0
KFR1 041353Z 17004KT 22/18 A3007 RMK A01 T02170177  RH  078%=      5-min Rain = 0
KFR1 041354Z 17004KT 22/18 A3007 RMK A01 T02170177  RH  078%=      5-min Rain = 0
KFR1 041355Z 19003KT 22/18 A3007 RMK A01 T02170176  RH  077%=      5-min Rain = 0
KFR1 041356Z 18001KT 22/18 A3008 RMK A01 T02170176  RH  077%=      5-min Rain = 0
KFR1 041357Z 15002KT 22/18 A3008 RMK A01 T02180178  RH  078%=      5-min Rain = 0
KFR1 041358Z 10001KT 22/18 A3008 RMK A01 T02180176  RH  077%=      5-min Rain = 0
KFR1 041359Z 08002KT 22/18 A3008 RMK A01 T02190179  RH  078%=      5-min Rain = 0
KFR1 041400Z 04002KT 22/18 A3008 RMK A01 T02190177  RH  077%=      5-min Rain = 0
KFR1 041401Z 03004KT 22/18 A3008 RMK A01 T02190181  RH  079%=      5-min Rain = 0
KFR1 041402Z 04003KT 22/18 A3008 RMK A01 T02190182  RH  080%=      5-min Rain = 0
KFR1 041403Z 04003KT 22/18 A3008 RMK A01 T02180182  RH  080%=      5-min Rain = 0
KFR1 041404Z 04002KT 22/18 A3008 RMK A01 T02170181  RH  080%=      5-min Rain = 0
KFR1 041405Z 07001KT 22/18 A3008 RMK A01 T02170182  RH  080%=      5-min Rain = 0
KFR1 041406Z 09001KT 22/18 A3008 RMK A01 T02170180  RH  079%=      5-min Rain = 0
KFR1 041407Z 16001KT 22/18 A3008 RMK A01 T02180176  RH  077%=      5-min Rain = 0
KFR1 041408Z 12000KT 22/18 A3008 RMK A01 T02180180  RH  079%=      5-min Rain = 0
KFR1 041409Z 19000KT 22/18 A3009 RMK A01 T02190178  RH  077%=      5-min Rain = 0
KFR1 041410Z 00000KT 22/18 A3009 RMK A01 T02200177  RH  077%=      5-min Rain = 0
KFR1 041411Z 00000KT 22/18 A3009 RMK A01 T02200176  RH  076%=      5-min Rain = 0
KFR1 041412Z 05001KT 22/18 A3009 RMK A01 T02210178  RH  077%=      5-min Rain = 0
KFR1 041413Z 05001KT 22/18 A3009 RMK A01 T02210179  RH  077%=      5-min Rain = 0
KFR1 041414Z 06000KT 22/18 A3009 RMK A01 T02210181  RH  078%=      5-min Rain = 0
KFR1 041415Z 00000KT 22/18 A3009 RMK A01 T02220180  RH  077%=      5-min Rain = 0
KFR1 041416Z 00000KT 22/18 A3009 RMK A01 T02220180  RH  077%=      5-min Rain = 0
KFR1 041417Z 34001KT 22/18 A3009 RMK A01 T02220180  RH  077%=      5-min Rain = 0
KFR1 041418Z 27001KT 22/18 A3009 RMK A01 T02220178  RH  076%=      5-min Rain = 0
KFR1 041419Z 27000KT 22/18 A3009 RMK A01 T02230177  RH  075%=      5-min Rain = 0
KFR1 041420Z 24001KT 22/18 A3009 RMK A01 T02230178  RH  076%=      5-min Rain = 0
KFR1 041421Z 24002KT 22/18 A3009 RMK A01 T02230178  RH  076%=      5-min Rain = 0
KFR1 041422Z 28001KT 22/19 A3009 RMK A01 T02240187  RH  080%=      5-min Rain = 0
KFR1 041423Z 32001KT 23/19 A301 RMK A01 T02250186  RH  078%=      5-min Rain = 0
KFR1 041424Z 33001KT 23/18 A301 RMK A01 T02250182  RH  077%=      5-min Rain = 0
KFR1 041425Z 33001KT 23/18 A301 RMK A01 T02250182  RH  077%=      5-min Rain = 0
KFR1 041426Z 34001KT 22/18 A301 RMK A01 T02240182  RH  077%=      5-min Rain = 0
KFR1 041427Z 36001KT 22/18 A301 RMK A01 T02240182  RH  077%=      5-min Rain = 0
KFR1 041428Z 00001KT 22/18 A301 RMK A01 T02240182  RH  077%=      5-min Rain = 0
KFR1 041429Z 03002KT 22/18 A301 RMK A01 T02240184  RH  078%=      5-min Rain = 0
KFR1 041430Z 02002KT 22/18 A301 RMK A01 T02240183  RH  077%=      5-min Rain = 0
KFR1 041431Z 01002KT 22/18 A301 RMK A01 T02240183  RH  078%=      5-min Rain = 0
KFR1 041432Z 02003KT 22/18 A301 RMK A01 T02240184  RH  078%=      5-min Rain = 0
KFR1 041433Z 02002KT 22/18 A301 RMK A01 T02240183  RH  078%=      5-min Rain = 0
KFR1 041434Z 02001KT 22/18 A301 RMK A01 T02240182  RH  077%=      5-min Rain = 0
KFR1 041435Z 32001KT 22/18 A301 RMK A01 T02240182  RH  077%=      5-min Rain = 0
KFR1 041436Z 31001KT 22/18 A301 RMK A01 T02240181  RH  076%=      5-min Rain = 0
KFR1 041437Z 34002KT 22/18 A301 RMK A01 T02240178  RH  075%=      5-min Rain = 0
KFR1 041438Z 00003KT 23/18 A3011 RMK A01 T02250179  RH  075%=      5-min Rain = 0
KFR1 041439Z 00004KT 23/18 A3011 RMK A01 T02250179  RH  075%=      5-min Rain = 0
KFR1 041440Z 35005KT 23/18 A3011 RMK A01 T02250181  RH  076%=      5-min Rain = 0
KFR1 041441Z 34004KT 22/18 A3011 RMK A01 T02240178  RH  075%=      5-min Rain = 0
KFR1 041442Z 36005KT 22/18 A3011 RMK A01 T02240178  RH  075%=      5-min Rain = 0
KFR1 041443Z 00004KT 22/18 A3011 RMK A01 T02230179  RH  076%=      5-min Rain = 0
KFR1 041444Z 35004KT 22/18 A3011 RMK A01 T02230180  RH  077%=      5-min Rain = 0
KFR1 041445Z 35003KT 22/18 A3011 RMK A01 T02230180  RH  077%=      5-min Rain = 0
KFR1 041446Z 35004KT 22/18 A3011 RMK A01 T02230176  RH  075%=      5-min Rain = 0
KFR1 041447Z 35003KT 22/18 A3011 RMK A01 T02230175  RH  074%=      5-min Rain = 0
KFR1 041448Z 35004KT 22/18 A3011 RMK A01 T02240178  RH  076%=      5-min Rain = 0
KFR1 041449Z 00004KT 22/18 A3012 RMK A01 T02240178  RH  075%=      5-min Rain = 0
KFR1 041450Z 36004KT 22/18 A3012 RMK A01 T02240179  RH  076%=      5-min Rain = 0
KFR1 041451Z 00004KT 22/18 A3012 RMK A01 T02240180  RH  076%=      5-min Rain = 0
KFR1 041452Z 36004KT 23/18 A3012 RMK A01 T02250178  RH  075%=      5-min Rain = 0
KFR1 041453Z 01004KT 22/18 A3012 RMK A01 T02240178  RH  075%=      5-min Rain = 0
KFR1 041454Z 01004KT 23/18 A3012 RMK A01 T02250179  RH  075%=      5-min Rain = 0
KFR1 041455Z 01005KT 23/18 A3012 RMK A01 T02250175  RH  073%=      5-min Rain = 0
KFR1 041456Z 01005KT 23/18 A3012 RMK A01 T02250175  RH  073%=      5-min Rain = 0
KFR1 041457Z 01004KT 23/18 A3012 RMK A01 T02250176  RH  074%=      5-min Rain = 0
KFR1 041458Z 01004KT 23/18 A3012 RMK A01 T02260181  RH  075%=      5-min Rain = 0
KFR1 041459Z 01005KT 23/18 A3012 RMK A01 T02270183  RH  076%=      5-min Rain = 0
KFR1 041500Z 01004KT 23/18 A3012 RMK A01 T02280184  RH  076%=      5-min Rain = 0
KFR1 041501Z 01005KT 23/18 A3012 RMK A01 T02290184  RH  076%=      5-min Rain = 0
KFR1 041502Z 01004KT 23/18 A3012 RMK A01 T02290184  RH  076%=      5-min Rain = 0
KFR1 041503Z 01005KT 23/19 A3012 RMK A01 T02300185  RH  076%=      5-min Rain = 0
KFR1 041504Z 01005KT 23/19 A3012 RMK A01 T02310187  RH  076%=      5-min Rain = 0
KFR1 041505Z 01004KT 23/19 A3012 RMK A01 T02310186  RH  076%=      5-min Rain = 0
KFR1 041506Z 00004KT 23/18 A3012 RMK A01 T02310180  RH  073%=      5-min Rain = 0
KFR1 041507Z 35004KT 23/18 A3012 RMK A01 T02310183  RH  074%=      5-min Rain = 0
KFR1 041508Z 34004KT 23/18 A3012 RMK A01 T02320184  RH  074%=      5-min Rain = 0
KFR1 041509Z 34005KT 23/19 A3012 RMK A01 T02320185  RH  075%=      5-min Rain = 0
KFR1 041510Z 35004KT 23/19 A3012 RMK A01 T02330186  RH  075%=      5-min Rain = 0
KFR1 041511Z 34004KT 23/18 A3012 RMK A01 T02320184  RH  074%=      5-min Rain = 0
KFR1 041512Z 33003KT 23/19 A3012 RMK A01 T02320186  RH  075%=      5-min Rain = 0
KFR1 041513Z 33003KT 23/19 A3012 RMK A01 T02320187  RH  076%=      5-min Rain = 0
KFR1 041514Z 35003KT 23/19 A3012 RMK A01 T02330189  RH  076%=      5-min Rain = 0
KFR1 041515Z 34003KT 23/19 A3012 RMK A01 T02340185  RH  074%=      5-min Rain = 0
KFR1 041516Z 32003KT 23/19 A3012 RMK A01 T02340189  RH  076%=      5-min Rain = 0
KFR1 041517Z 31003KT 23/18 A3012 RMK A01 T02340183  RH  073%=      5-min Rain = 0
KFR1 041518Z 29002KT 23/19 A3012 RMK A01 T02330185  RH  074%=      5-min Rain = 0
KFR1 041519Z 31002KT 24/19 A3012 RMK A01 T02350188  RH  075%=      5-min Rain = 0
KFR1 041520Z 31003KT 24/19 A3012 RMK A01 T02360185  RH  073%=      5-min Rain = 0
KFR1 041521Z 30002KT 24/18 A3012 RMK A01 T02360183  RH  072%=      5-min Rain = 0
KFR1 041522Z 33003KT 24/19 A3012 RMK A01 T02360188  RH  074%=      5-min Rain = 0
KFR1 041523Z 33003KT 24/19 A3012 RMK A01 T02380186  RH  073%=      5-min Rain = 0
KFR1 041524Z 33004KT 24/18 A3012 RMK A01 T02380182  RH  071%=      5-min Rain = 0
KFR1 041525Z 33004KT 24/18 A3012 RMK A01 T02370180  RH  070%=      5-min Rain = 0
KFR1 041526Z 33002KT 24/18 A3012 RMK A01 T02370180  RH  071%=      5-min Rain = 0
KFR1 041527Z 31003KT 24/18 A3012 RMK A01 T02370183  RH  072%=      5-min Rain = 0
KFR1 041528Z 32002KT 24/18 A3012 RMK A01 T02390179  RH  069%=      5-min Rain = 0
KFR1 041529Z 32002KT 24/18 A3012 RMK A01 T02390182  RH  071%=      5-min Rain = 0
KFR1 041530Z 33003KT 24/18 A3012 RMK A01 T02400183  RH  070%=      5-min Rain = 0
KFR1 041531Z 33003KT 24/18 A3012 RMK A01 T02400177  RH  068%=      5-min Rain = 0
KFR1 041532Z 32003KT 24/18 A3012 RMK A01 T02400177  RH  068%=      5-min Rain = 0
KFR1 041533Z 32003KT 24/18 A3012 RMK A01 T02410177  RH  067%=      5-min Rain = 0
KFR1 041534Z 32003KT 24/18 A3012 RMK A01 T02430180  RH  068%=      5-min Rain = 0
KFR1 041535Z 00003KT 25/18 A3012 RMK A01 T02450176  RH  065%=      5-min Rain = 0
KFR1 041536Z 05003KT 25/18 A3012 RMK A01 T02460176  RH  065%=      5-min Rain = 0
KFR1 041537Z 03003KT 25/18 A3012 RMK A01 T02460178  RH  066%=      5-min Rain = 0
KFR1 041538Z 01003KT 25/17 A3012 RMK A01 T02470172  RH  063%=      5-min Rain = 0
KFR1 041539Z 04003KT 25/17 A3012 RMK A01 T02470173  RH  063%=      5-min Rain = 0
KFR1 041540Z 01004KT 25/17 A3012 RMK A01 T02490174  RH  063%=      5-min Rain = 0
KFR1 041541Z 01003KT 25/17 A3012 RMK A01 T02490172  RH  062%=      5-min Rain = 0
KFR1 041542Z 01003KT 25/17 A3012 RMK A01 T02490174  RH  063%=      5-min Rain = 0
KFR1 041543Z 36002KT 25/18 A3012 RMK A01 T02500175  RH  063%=      5-min Rain = 0
KFR1 041544Z 01004KT 25/18 A3012 RMK A01 T02520175  RH  062%=      5-min Rain = 0
KFR1 041545Z 36003KT 25/17 A3012 RMK A01 T02510172  RH  061%=      5-min Rain = 0
KFR1 041546Z 02002KT 25/18 A3012 RMK A01 T02510180  RH  065%=      5-min Rain = 0
KFR1 041547Z 03002KT 25/18 A3012 RMK A01 T02540178  RH  063%=      5-min Rain = 0
KFR1 041548Z 04002KT 26/17 A3012 RMK A01 T02560173  RH  060%=      5-min Rain = 0
KFR1 041549Z 03003KT 26/18 A3012 RMK A01 T02550175  RH  061%=      5-min Rain = 0
KFR1 041550Z 06002KT 26/17 A3012 RMK A01 T02550174  RH  061%=      5-min Rain = 0
KFR1 041551Z 07002KT 26/17 A3012 RMK A01 T02550173  RH  060%=      5-min Rain = 0
KFR1 041552Z 06001KT 26/17 A3012 RMK A01 T02550171  RH  059%=      5-min Rain = 0
KFR1 041553Z 35003KT 26/17 A3012 RMK A01 T02560173  RH  060%=      5-min Rain = 0
KFR1 041554Z 01004KT 26/17 A3012 RMK A01 T02560174  RH  061%=      5-min Rain = 0
KFR1 041555Z 01004KT 26/18 A3012 RMK A01 T02580175  RH  060%=      5-min Rain = 0
KFR1 041556Z 00004KT 26/17 A3012 RMK A01 T02580173  RH  060%=      5-min Rain = 0
KFR1 041557Z 00004KT 26/17 A3012 RMK A01 T02580173  RH  059%=      5-min Rain = 0
KFR1 041558Z 01003KT 26/17 A3012 RMK A01 T02580169  RH  058%=      5-min Rain = 0
KFR1 041559Z 01003KT 26/17 A3012 RMK A01 T02580173  RH  059%=      5-min Rain = 0
KFR1 041600Z 01003KT 26/17 A3011 RMK A01 T02580173  RH  059%=      5-min Rain = 0
KFR1 041601Z 02004KT 26/18 A3011 RMK A01 T02590175  RH  060%=      5-min Rain = 0
KFR1 041602Z 02003KT 26/17 A3011 RMK A01 T02600174  RH  059%=      5-min Rain = 0
KFR1 041603Z 01003KT 26/18 A3011 RMK A01 T02630181  RH  060%=      5-min Rain = 0
KFR1 041604Z 02004KT 27/18 A3011 RMK A01 T02660176  RH  058%=      5-min Rain = 0
KFR1 041605Z 02003KT 27/17 A3011 RMK A01 T02660174  RH  057%=      5-min Rain = 0
KFR1 041606Z 01002KT 27/18 A3011 RMK A01 T02660177  RH  058%=      5-min Rain = 0
KFR1 041607Z 00005KT 27/17 A3011 RMK A01 T02660174  RH  057%=      5-min Rain = 0
KFR1 041608Z 01004KT 27/17 A3011 RMK A01 T02660173  RH  057%=      5-min Rain = 0
KFR1 041609Z 36003KT 26/17 A3011 RMK A01 T02640171  RH  057%=      5-min Rain = 0
KFR1 041610Z 36003KT 26/17 A3011 RMK A01 T02630171  RH  057%=      5-min Rain = 0
KFR1 041611Z 36002KT 26/17 A3011 RMK A01 T02620172  RH  058%=      5-min Rain = 0
KFR1 041612Z 01003KT 26/17 A3011 RMK A01 T02640174  RH  058%=      5-min Rain = 0
KFR1 041613Z 02005KT 27/17 A3011 RMK A01 T02650172  RH  057%=      5-min Rain = 0
KFR1 041614Z 02004KT 27/17 A3011 RMK A01 T02650174  RH  057%=      5-min Rain = 0
KFR1 041615Z 33004KT 27/17 A3011 RMK A01 T02660174  RH  057%=      5-min Rain = 0
KFR1 041616Z 35004KT 27/18 A3011 RMK A01 T02670177  RH  057%=      5-min Rain = 0
KFR1 041617Z 00005KT 27/17 A3011 RMK A01 T02690174  RH  056%=      5-min Rain = 0
KFR1 041618Z 35005KT 27/18 A3011 RMK A01 T02700175  RH  056%=      5-min Rain = 0
KFR1 041619Z 35003KT 27/18 A3012 RMK A01 T02690176  RH  057%=      5-min Rain = 0
KFR1 041620Z 01004KT 27/18 A3012 RMK A01 T02710176  RH  056%=      5-min Rain = 0
KFR1 041621Z 01003KT 27/17 A3012 RMK A01 T02710173  RH  055%=      5-min Rain = 0
KFR1 041622Z 35003KT 27/18 A3012 RMK A01 T02700176  RH  056%=      5-min Rain = 0
KFR1 041623Z 35005KT 27/18 A3012 RMK A01 T02720176  RH  056%=      5-min Rain = 0
KFR1 041624Z 35005KT 27/17 A3012 RMK A01 T02720174  RH  055%=      5-min Rain = 0.01
KFR1 041625Z 34005KT 27/17 A3012 RMK A01 T02700173  RH  055%=      5-min Rain = 0
KFR1 041626Z 35004KT 27/17 A3012 RMK A01 T02690172  RH  055%=      5-min Rain = 0
KFR1 041627Z 34005KT 27/17 A3012 RMK A01 T02700173  RH  055%=      5-min Rain = 0
KFR1 041628Z 35006KT 27/17 A3012 RMK A01 T02710173  RH  055%=      5-min Rain = 0
KFR1 041629Z 34006KT 27/17 A3012 RMK A01 T02720174  RH  055%=      5-min Rain = 0
KFR1 041630Z 35005KT 27/18 A3012 RMK A01 T02730175  RH  055%=      5-min Rain = 0
KFR1 041631Z 01005KT 27/17 A3012 RMK A01 T02730171  RH  054%=      5-min Rain = 0
KFR1 041632Z 00006KT 27/17 A3012 RMK A01 T02740173  RH  054%=      5-min Rain = 0
KFR1 041633Z 00005KT 28/18 A3012 RMK A01 T02750175  RH  054%=      5-min Rain = 0
KFR1 041634Z 01006KT 28/17 A3012 RMK A01 T02760173  RH  053%=      5-min Rain = 0
KFR1 041635Z 03007KT 28/17 A3012 RMK A01 T02760170  RH  052%=      5-min Rain = 0
KFR1 041636Z 01005KT 28/17 A3012 RMK A01 T02750169  RH  052%=      5-min Rain = 0
KFR1 041637Z 01005KT 28/17 A3012 RMK A01 T02750172  RH  054%=      5-min Rain = 0
KFR1 041638Z 00005KT 28/18 A3012 RMK A01 T02770175  RH  054%=      5-min Rain = 0
KFR1 041639Z 01007KT 28/18 A3012 RMK A01 T02790175  RH  053%=      5-min Rain = 0
KFR1 041640Z 00007KT 28/17 A3012 RMK A01 T02790170  RH  051%=      5-min Rain = 0
KFR1 041641Z 01005KT 28/17 A3012 RMK A01 T02760168  RH  052%=      5-min Rain = 0
KFR1 041642Z 02005KT 28/17 A3012 RMK A01 T02770169  RH  052%=      5-min Rain = 0
KFR1 041643Z 04006KT 28/17 A3012 RMK A01 T02780172  RH  052%=      5-min Rain = 0
KFR1 041644Z 02006KT 28/17 A3011 RMK A01 T02800169  RH  051%=      5-min Rain = 0
KFR1 041645Z 05008KT 28/17 A3012 RMK A01 T02800168  RH  050%=      5-min Rain = 0
KFR1 041646Z 04007KT 28/17 A3012 RMK A01 T02800166  RH  050%=      5-min Rain = 0
KFR1 041647Z 04007KT 28/17 A3012 RMK A01 T02820168  RH  050%=      5-min Rain = 0
KFR1 041648Z 03008KT 28/17 A3011 RMK A01 T02840168  RH  049%=      5-min Rain = 0
KFR1 041649Z 02008KT 29/17 A3011 RMK A01 T02850167  RH  049%=      5-min Rain = 0
KFR1 041650Z 04007KT 28/17 A3011 RMK A01 T02840171  RH  050%=      5-min Rain = 0
KFR1 041651Z 04009KT 29/17 A3011 RMK A01 T02870169  RH  049%=      5-min Rain = 0
KFR1 041652Z 05009KT 29/16 A3012 RMK A01 T02850163  RH  048%=      5-min Rain = 0
KFR1 041653Z 06008KT 28/16 A3012 RMK A01 T02820163  RH  049%=      5-min Rain = 0
KFR1 041654Z 08009KT 28/16 A3012 RMK A01 T02800164  RH  049%=      5-min Rain = 0
KFR1 041655Z 07010KT 28/17 A3011 RMK A01 T02810165  RH  049%=      5-min Rain = 0
KFR1 041656Z 08007KT 29/17 A3012 RMK A01 T02850169  RH  050%=      5-min Rain = 0
KFR1 041657Z 08010KT 29/17 A3012 RMK A01 T02880169  RH  049%=      5-min Rain = 0
KFR1 041658Z 08007KT 29/16 A3012 RMK A01 T02880162  RH  046%=      5-min Rain = 0
KFR1 041659Z 09005KT 28/16 A3012 RMK A01 T02840159  RH  047%=      5-min Rain = 0
KFR1 041700Z 12007KT 28/16 A3012 RMK A01 T02820162  RH  048%=      5-min Rain = 0
KFR1 041701Z 08011KT 28/16 A3011 RMK A01 T02840164  RH  048%=      5-min Rain = 0
KFR1 041702Z 06006KT 29/16 A3012 RMK A01 T02870161  RH  047%=      5-min Rain = 0
KFR1 041703Z 06004KT 29/16 A3012 RMK A01 T02850161  RH  047%=      5-min Rain = 0
KFR1 041704Z 07002KT 28/16 A3012 RMK A01 T02840161  RH  047%=      5-min Rain = 0
KFR1 041705Z 06005KT 28/17 A3012 RMK A01 T02840165  RH  048%=      5-min Rain = 0
KFR1 041706Z 10005KT 29/17 A3012 RMK A01 T02870166  RH  048%=      5-min Rain = 0
KFR1 041707Z 08005KT 29/17 A3011 RMK A01 T02880167  RH  048%=      5-min Rain = 0
KFR1 041708Z 04008KT 29/17 A3011 RMK A01 T02890173  RH  049%=      5-min Rain = 0
KFR1 041709Z 05012KT 29/17 A3011 RMK A01 T02900170  RH  048%=      5-min Rain = 0
KFR1 041710Z 06007KT 29/16 A3012 RMK A01 T02870160  RH  046%=      5-min Rain = 0
KFR1 041711Z 06008KT 28/16 A3012 RMK A01 T02830163  RH  048%=      5-min Rain = 0
KFR1 041712Z 07006KT 28/17 A3012 RMK A01 T02830165  RH  049%=      5-min Rain = 0
KFR1 041713Z 06005KT 28/17 A3012 RMK A01 T02840168  RH  049%=      5-min Rain = 0
KFR1 041714Z 06005KT 28/17 A3012 RMK A01 T02840166  RH  049%=      5-min Rain = 0
KFR1 041715Z 04004KT 29/17 A3012 RMK A01 T02850173  RH  051%=      5-min Rain = 0
KFR1 041716Z 06005KT 29/17 A3012 RMK A01 T02870174  RH  050%=      5-min Rain = 0
KFR1 041717Z 07007KT 29/17 A3012 RMK A01 T02860171  RH  050%=      5-min Rain = 0
KFR1 041718Z 06007KT 28/17 A3012 RMK A01 T02840169  RH  050%=      5-min Rain = 0
KFR1 041719Z 08005KT 28/16 A3012 RMK A01 T02840160  RH  047%=      5-min Rain = 0
KFR1 041720Z 08004KT 29/16 A3012 RMK A01 T02850159  RH  046%=      5-min Rain = 0
KFR1 041721Z 10006KT 29/16 A3012 RMK A01 T02860160  RH  046%=      5-min Rain = 0
KFR1 041722Z 10007KT 29/16 A3012 RMK A01 T02860157  RH  046%=      5-min Rain = 0
KFR1 041723Z 13005KT 29/16 A3012 RMK A01 T02850158  RH  046%=      5-min Rain = 0
KFR1 041724Z 10008KT 29/16 A3012 RMK A01 T02860159  RH  046%=      5-min Rain = 0
KFR1 041725Z 08005KT 29/16 A3012 RMK A01 T02850160  RH  047%=      5-min Rain = 0
KFR1 041726Z 07003KT 28/16 A3012 RMK A01 T02840163  RH  048%=      5-min Rain = 0
KFR1 041727Z 08006KT 28/16 A3012 RMK A01 T02840163  RH  048%=      5-min Rain = 0
KFR1 041728Z 08009KT 29/17 A3012 RMK A01 T02860165  RH  048%=      5-min Rain = 0
KFR1 041729Z 07008KT 29/16 A3012 RMK A01 T02870163  RH  047%=      5-min Rain = 0
KFR1 041730Z 05007KT 29/16 A3012 RMK A01 T02860163  RH  047%=      5-min Rain = 0
KFR1 041731Z 04007KT 29/17 A3011 RMK A01 T02870165  RH  048%=      5-min Rain = 0
KFR1 041732Z 03006KT 29/17 A3011 RMK A01 T02880166  RH  048%=      5-min Rain = 0
KFR1 041733Z 03005KT 29/17 A3011 RMK A01 T02890168  RH  048%=      5-min Rain = 0
KFR1 041734Z 04007KT 29/17 A3011 RMK A01 T02920171  RH  048%=      5-min Rain = 0
KFR1 041735Z 04008KT 29/17 A3011 RMK A01 T02930166  RH  046%=      5-min Rain = 0
KFR1 041736Z 05008KT 29/17 A3011 RMK A01 T02910167  RH  047%=      5-min Rain = 0
KFR1 041737Z 04008KT 29/17 A3011 RMK A01 T02910165  RH  047%=      5-min Rain = 0
KFR1 041738Z 05005KT 29/17 A3011 RMK A01 T02900168  RH  048%=      5-min Rain = 0
KFR1 041739Z 07005KT 29/17 A3011 RMK A01 T02910169  RH  048%=      5-min Rain = 0
KFR1 041740Z 09005KT 29/17 A3011 RMK A01 T02930169  RH  047%=      5-min Rain = 0
KFR1 041741Z 07005KT 30/17 A3011 RMK A01 T02960170  RH  047%=      5-min Rain = 0
KFR1 041742Z 05004KT 30/17 A3011 RMK A01 T02950167  RH  046%=      5-min Rain = 0
KFR1 041743Z 05006KT 29/17 A3011 RMK A01 T02940167  RH  046%=      5-min Rain = 0
KFR1 041744Z 04008KT 29/17 A3011 RMK A01 T02940168  RH  047%=      5-min Rain = 0
KFR1 041745Z 05007KT 29/17 A3011 RMK A01 T02930169  RH  047%=      5-min Rain = 0
KFR1 041746Z 04008KT 29/17 A3011 RMK A01 T02930165  RH  046%=      5-min Rain = 0
KFR1 041747Z 03007KT 29/17 A3011 RMK A01 T02910166  RH  047%=      5-min Rain = 0
KFR1 041748Z 04009KT 29/17 A3011 RMK A01 T02920170  RH  048%=      5-min Rain = 0
KFR1 041749Z 05007KT 29/17 A3011 RMK A01 T02940169  RH  047%=      5-min Rain = 0
KFR1 041750Z 06007KT 29/17 A3011 RMK A01 T02930172  RH  048%=      5-min Rain = 0
KFR1 041751Z 08006KT 30/18 A3011 RMK A01 T02970175  RH  048%=      5-min Rain = 0
KFR1 041752Z 09005KT 30/17 A3011 RMK A01 T02980171  RH  046%=      5-min Rain = 0
KFR1 041753Z 12007KT 30/17 A3011 RMK A01 T02970173  RH  047%=      5-min Rain = 0
KFR1 041754Z 12006KT 30/17 A3011 RMK A01 T02980170  RH  046%=      5-min Rain = 0
KFR1 041755Z 11004KT 30/17 A3011 RMK A01 T02960169  RH  046%=      5-min Rain = 0
KFR1 041756Z 11004KT 30/17 A3011 RMK A01 T02950173  RH  048%=      5-min Rain = 0
KFR1 041757Z 07005KT 30/18 A3011 RMK A01 T02980175  RH  048%=      5-min Rain = 0
KFR1 041758Z 08007KT 30/17 A3011 RMK A01 T03000173  RH  046%=      5-min Rain = 0
KFR1 041759Z 06006KT 30/17 A3011 RMK A01 T02970167  RH  045%=      5-min Rain = 0
KFR1 041800Z 06004KT 29/17 A3011 RMK A01 T02940170  RH  047%=      5-min Rain = 0
KFR1 041801Z 08003KT 30/17 A301 RMK A01 T02950172  RH  048%=      5-min Rain = 0
KFR1 041802Z 08003KT 30/17 A301 RMK A01 T02960169  RH  047%=      5-min Rain = 0
KFR1 041803Z 08006KT 30/17 A301 RMK A01 T02970174  RH  048%=      5-min Rain = 0
KFR1 041804Z 06005KT 30/17 A301 RMK A01 T02990174  RH  047%=      5-min Rain = 0
KFR1 041805Z 08007KT 30/17 A301 RMK A01 T03010173  RH  046%=      5-min Rain = 0
KFR1 041806Z 12007KT 30/17 A301 RMK A01 T03010171  RH  046%=      5-min Rain = 0
KFR1 041807Z 12005KT 30/17 A301 RMK A01 T03000170  RH  046%=      5-min Rain = 0
KFR1 041808Z 10004KT 30/17 A301 RMK A01 T02980170  RH  046%=      5-min Rain = 0
KFR1 041809Z 14003KT 30/17 A301 RMK A01 T02970172  RH  047%=      5-min Rain = 0
KFR1 041810Z 16003KT 30/17 A301 RMK A01 T02980174  RH  047%=      5-min Rain = 0
KFR1 041811Z 13005KT 30/17 A301 RMK A01 T03020172  RH  046%=      5-min Rain = 0
KFR1 041812Z 12003KT 30/17 A301 RMK A01 T03020171  RH  045%=      5-min Rain = 0
KFR1 041813Z 13004KT 30/17 A301 RMK A01 T03010171  RH  046%=      5-min Rain = 0
KFR1 041814Z 13004KT 30/17 A301 RMK A01 T03010174  RH  047%=      5-min Rain = 0
KFR1 041815Z 10003KT 30/18 A301 RMK A01 T03040176  RH  046%=      5-min Rain = 0
KFR1 041816Z 11004KT 31/18 A301 RMK A01 T03060178  RH  046%=      5-min Rain = 0
KFR1 041817Z 11005KT 31/17 A301 RMK A01 T03060173  RH  045%=      5-min Rain = 0
KFR1 041818Z 11002KT 30/17 A301 RMK A01 T03020170  RH  045%=      5-min Rain = 0
KFR1 041819Z 10002KT 30/17 A301 RMK A01 T03000169  RH  045%=      5-min Rain = 0
KFR1 041820Z 13001KT 30/17 A301 RMK A01 T03000173  RH  046%=      5-min Rain = 0
KFR1 041821Z 09004KT 30/17 A301 RMK A01 T03010173  RH  046%=      5-min Rain = 0
KFR1 041822Z 08003KT 30/17 A301 RMK A01 T03020173  RH  046%=      5-min Rain = 0
KFR1 041823Z 13001KT 30/17 A301 RMK A01 T03020172  RH  046%=      5-min Rain = 0
KFR1 041824Z 34000KT 30/17 A301 RMK A01 T03030172  RH  046%=      5-min Rain = 0
KFR1 041825Z 11002KT 31/18 A301 RMK A01 T03050175  RH  046%=      5-min Rain = 0
KFR1 041826Z 17005KT 31/18 A301 RMK A01 T03090181  RH  046%=      5-min Rain = 0
KFR1 041827Z 22004KT 31/18 A301 RMK A01 T03140179  RH  045%=      5-min Rain = 0
KFR1 041828Z 23005KT 32/18 A301 RMK A01 T03150176  RH  043%=      5-min Rain = 0
KFR1 041829Z 27002KT 32/18 A301 RMK A01 T03160179  RH  044%=      5-min Rain = 0
KFR1 041830Z 03004KT 32/18 A301 RMK A01 T03170177  RH  043%=      5-min Rain = 0
KFR1 041831Z 05006KT 32/18 A301 RMK A01 T03160179  RH  044%=      5-min Rain = 0
KFR1 041832Z 08005KT 31/17 A301 RMK A01 T03120174  RH  044%=      5-min Rain = 0
KFR1 041833Z 07003KT 31/18 A301 RMK A01 T03070177  RH  046%=      5-min Rain = 0
KFR1 041834Z 11004KT 31/18 A301 RMK A01 T03060178  RH  046%=      5-min Rain = 0
KFR1 041835Z 10003KT 31/18 A301 RMK A01 T03050177  RH  046%=      5-min Rain = 0
KFR1 041836Z 05003KT 30/18 A301 RMK A01 T03030175  RH  046%=      5-min Rain = 0
KFR1 041837Z 03005KT 30/17 A301 RMK A01 T03010171  RH  046%=      5-min Rain = 0
KFR1 041838Z 03005KT 30/18 A301 RMK A01 T02990175  RH  047%=      5-min Rain = 0
KFR1 041839Z 04003KT 30/17 A301 RMK A01 T02990172  RH  047%=      5-min Rain = 0
KFR1 041840Z 05004KT 30/17 A301 RMK A01 T02960172  RH  047%=      5-min Rain = 0
KFR1 041841Z 04005KT 30/17 A3009 RMK A01 T02950173  RH  048%=      5-min Rain = 0
KFR1 041842Z 07002KT 30/18 A3009 RMK A01 T02960178  RH  049%=      5-min Rain = 0
KFR1 041843Z 33001KT 30/18 A3009 RMK A01 T03000179  RH  048%=      5-min Rain = 0
KFR1 041844Z 03001KT 30/18 A3009 RMK A01 T03040176  RH  046%=      5-min Rain = 0
KFR1 041845Z 31001KT 31/17 A3009 RMK A01 T03060170  RH  044%=      5-min Rain = 0
KFR1 041846Z 33002KT 31/17 A3009 RMK A01 T03070172  RH  044%=      5-min Rain = 0
KFR1 041847Z 33003KT 31/17 A3009 RMK A01 T03090172  RH  044%=      5-min Rain = 0
KFR1 041848Z 35004KT 31/17 A3009 RMK A01 T03090172  RH  044%=      5-min Rain = 0
KFR1 041849Z 05005KT 31/17 A3009 RMK A01 T03080172  RH  044%=      5-min Rain = 0
KFR1 041850Z 06003KT 30/17 A3009 RMK A01 T03030166  RH  044%=      5-min Rain = 0
KFR1 041851Z 00004KT 30/17 A3009 RMK A01 T02990171  RH  046%=      5-min Rain = 0
KFR1 041852Z 32002KT 30/17 A3009 RMK A01 T02990168  RH  045%=      5-min Rain = 0
KFR1 041853Z 06001KT 30/17 A3009 RMK A01 T02980171  RH  046%=      5-min Rain = 0
KFR1 041854Z 06002KT 30/17 A3009 RMK A01 T02980169  RH  046%=      5-min Rain = 0
KFR1 041855Z 13002KT 30/17 A3009 RMK A01 T02990170  RH  046%=      5-min Rain = 0
KFR1 041856Z 12007G12KT 30/18 A3008 RMK A01 T03010175  RH  047%=      5-min Rain = 0
KFR1 041857Z 04007G12KT 31/18 A3008 RMK A01 T03070175  RH  045%=      5-min Rain = 0
KFR1 041858Z 03003KT 31/17 A3008 RMK A01 T03070172  RH  044%=      5-min Rain = 0
KFR1 041859Z 35002KT 31/18 A3008 RMK A01 T03060175  RH  046%=      5-min Rain = 0
KFR1 041900Z 34003KT 31/18 A3008 RMK A01 T03070176  RH  045%=      5-min Rain = 0
KFR1 041901Z 00005KT 31/17 A3008 RMK A01 T03100173  RH  044%=      5-min Rain = 0
KFR1 041902Z 01005KT 31/17 A3008 RMK A01 T03080171  RH  044%=      5-min Rain = 0
KFR1 041903Z 04005KT 31/17 A3008 RMK A01 T03050174  RH  046%=      5-min Rain = 0
KFR1 041904Z 04005KT 30/17 A3008 RMK A01 T03030173  RH  046%=      5-min Rain = 0
KFR1 041905Z 04004KT 30/17 A3008 RMK A01 T03010173  RH  046%=      5-min Rain = 0
KFR1 041906Z 03004KT 30/17 A3008 RMK A01 T02990174  RH  047%=      5-min Rain = 0
KFR1 041907Z 01005KT 30/18 A3008 RMK A01 T02990175  RH  047%=      5-min Rain = 0
KFR1 041908Z 01005KT 30/18 A3008 RMK A01 T02990177  RH  048%=      5-min Rain = 0
KFR1 041909Z 01006KT 30/18 A3008 RMK A01 T03000177  RH  048%=      5-min Rain = 0
KFR1 041910Z 02005KT 30/18 A3008 RMK A01 T03010177  RH  047%=      5-min Rain = 0
KFR1 041911Z 35004KT 30/18 A3008 RMK A01 T03010178  RH  047%=      5-min Rain = 0
KFR1 041912Z 34005KT 30/18 A3008 RMK A01 T03040177  RH  047%=      5-min Rain = 0
KFR1 041913Z 33006KT 31/18 A3008 RMK A01 T03050177  RH  046%=      5-min Rain = 0
KFR1 041914Z 35003KT 31/18 A3008 RMK A01 T03080182  RH  047%=      5-min Rain = 0
KFR1 041915Z 33001KT 31/18 A3007 RMK A01 T03120181  RH  045%=      5-min Rain = 0
KFR1 041916Z 01002KT 31/18 A3007 RMK A01 T03140176  RH  044%=      5-min Rain = 0
KFR1 041917Z 07005G11KT 31/18 A3007 RMK A01 T03140182  RH  045%=      5-min Rain = 0
KFR1 041918Z 08007KT 31/18 A3008 RMK A01 T03130177  RH  044%=      5-min Rain = 0
KFR1 041919Z 09007KT 31/18 A3007 RMK A01 T03110176  RH  045%=      5-min Rain = 0
KFR1 041920Z 11008KT 31/17 A3007 RMK A01 T03120174  RH  044%=      5-min Rain = 0
KFR1 041921Z 12010KT 32/17 A3007 RMK A01 T03150173  RH  043%=      5-min Rain = 0
KFR1 041922Z 13005KT 32/17 A3007 RMK A01 T03160172  RH  042%=      5-min Rain = 0
KFR1 041923Z 09004KT 32/18 A3007 RMK A01 T03160177  RH  044%=      5-min Rain = 0
KFR1 041924Z 08006KT 32/18 A3007 RMK A01 T03180175  RH  043%=      5-min Rain = 0
KFR1 041925Z 11006KT 32/18 A3007 RMK A01 T03190177  RH  043%=      5-min Rain = 0
KFR1 041926Z 12007KT 32/17 A3007 RMK A01 T03200173  RH  041%=      5-min Rain = 0
KFR1 041927Z 11007KT 32/17 A3007 RMK A01 T03190172  RH  042%=      5-min Rain = 0
KFR1 041928Z 11005KT 32/18 A3007 RMK A01 T03170175  RH  043%=      5-min Rain = 0
KFR1 041929Z 15004KT 32/17 A3007 RMK A01 T03170171  RH  042%=      5-min Rain = 0
KFR1 041930Z 05002KT 32/18 A3007 RMK A01 T03170177  RH  043%=      5-min Rain = 0
KFR1 041931Z 05006KT 32/18 A3007 RMK A01 T03210180  RH  043%=      5-min Rain = 0
KFR1 041932Z 06008KT 32/18 A3007 RMK A01 T03220176  RH  042%=      5-min Rain = 0
KFR1 041933Z 07010KT 32/18 A3007 RMK A01 T03210176  RH  042%=      5-min Rain = 0
KFR1 041934Z 07010KT 32/17 A3007 RMK A01 T03180171  RH  041%=      5-min Rain = 0
KFR1 041935Z 08010KT 32/17 A3007 RMK A01 T03160174  RH  043%=      5-min Rain = 0
KFR1 041936Z 07008KT 32/17 A3007 RMK A01 T03170174  RH  042%=      5-min Rain = 0
KFR1 041937Z 07009KT 32/17 A3006 RMK A01 T03170171  RH  041%=      5-min Rain = 0
KFR1 041938Z 08008KT 32/17 A3006 RMK A01 T03170170  RH  042%=      5-min Rain = 0
KFR1 041939Z 09006KT 32/17 A3006 RMK A01 T03160173  RH  042%=      5-min Rain = 0
KFR1 041940Z 10006KT 32/17 A3006 RMK A01 T03170173  RH  042%=      5-min Rain = 0
KFR1 041941Z 12005KT 32/18 A3006 RMK A01 T03200175  RH  042%=      5-min Rain = 0
KFR1 041942Z 11008KT 32/18 A3006 RMK A01 T03240175  RH  041%=      5-min Rain = 0
KFR1 041943Z 12004KT 32/17 A3006 RMK A01 T03240171  RH  040%=      5-min Rain = 0
KFR1 041944Z 10006G12KT 32/18 A3006 RMK A01 T03230176  RH  042%=      5-min Rain = 0
KFR1 041945Z 08011KT 32/17 A3006 RMK A01 T03240173  RH  041%=      5-min Rain = 0
KFR1 041946Z 09012KT 32/17 A3006 RMK A01 T03200174  RH  042%=      5-min Rain = 0
KFR1 041947Z 07013KT 32/17 A3006 RMK A01 T03170171  RH  042%=      5-min Rain = 0
KFR1 041948Z 08009KT 32/17 A3006 RMK A01 T03150170  RH  042%=      5-min Rain = 0
KFR1 041949Z 08010KT 32/17 A3006 RMK A01 T03150173  RH  043%=      5-min Rain = 0
KFR1 041950Z 09011KT 32/18 A3006 RMK A01 T03190176  RH  042%=      5-min Rain = 0
KFR1 041951Z 09010KT 32/18 A3006 RMK A01 T03210176  RH  042%=      5-min Rain = 0
KFR1 041952Z 08009KT 32/18 A3006 RMK A01 T03220175  RH  042%=      5-min Rain = 0
KFR1 041953Z 08007KT 32/18 A3006 RMK A01 T03230180  RH  043%=      5-min Rain = 0
KFR1 041954Z 09008KT 33/19 A3006 RMK A01 T03300185  RH  042%=      5-min Rain = 0
KFR1 041955Z 08006KT 33/18 A3006 RMK A01 T03310178  RH  040%=      5-min Rain = 0
KFR1 041956Z 09008KT 33/18 A3006 RMK A01 T03290178  RH  041%=      5-min Rain = 0
KFR1 041957Z 07006KT 33/18 A3006 RMK A01 T03270175  RH  040%=      5-min Rain = 0
KFR1 041958Z 07006G11KT 32/17 A3005 RMK A01 T03240170  RH  040%=      5-min Rain = 0
KFR1 041959Z 06010G15KT 32/17 A3005 RMK A01 T03200172  RH  041%=      5-min Rain = 0
KFR1 042000Z 11011KT 32/18 A3005 RMK A01 T03210176  RH  042%=      5-min Rain = 0
KFR1 042001Z 11012KT 32/17 A3005 RMK A01 T03220173  RH  041%=      5-min Rain = 0
KFR1 042002Z 09008KT 32/17 A3005 RMK A01 T03180170  RH  041%=      5-min Rain = 0
KFR1 042003Z 10008KT 32/17 A3005 RMK A01 T03150172  RH  043%=      5-min Rain = 0
KFR1 042004Z 09009KT 31/17 A3005 RMK A01 T03140172  RH  043%=      5-min Rain = 0
KFR1 042005Z 07006KT 31/17 A3005 RMK A01 T03140169  RH  042%=      5-min Rain = 0
KFR1 042006Z 05004KT 31/17 A3005 RMK A01 T03130170  RH  042%=      5-min Rain = 0
KFR1 042007Z 09003KT 31/17 A3005 RMK A01 T03140174  RH  043%=      5-min Rain = 0
KFR1 042008Z 11005KT 32/17 A3005 RMK A01 T03170173  RH  042%=      5-min Rain = 0
KFR1 042009Z 13006KT 32/17 A3005 RMK A01 T03180172  RH  042%=      5-min Rain = 0
KFR1 042010Z 14006KT 32/17 A3005 RMK A01 T03200170  RH  041%=      5-min Rain = 0
KFR1 042011Z 10006KT 32/17 A3005 RMK A01 T03210170  RH  041%=      5-min Rain = 0
KFR1 042012Z 11005KT 32/17 A3005 RMK A01 T03210171  RH  041%=      5-min Rain = 0
KFR1 042013Z 12002KT 32/17 A3005 RMK A01 T03210167  RH  040%=      5-min Rain = 0
KFR1 042014Z 12005G11KT 32/17 A3005 RMK A01 T03210172  RH  041%=      5-min Rain = 0
KFR1 042015Z 12011KT 32/17 A3005 RMK A01 T03230172  RH  040%=      5-min Rain = 0
KFR1 042016Z 09009KT 32/17 A3005 RMK A01 T03230173  RH  041%=      5-min Rain = 0
KFR1 042017Z 11008KT 32/17 A3005 RMK A01 T03240172  RH  040%=      5-min Rain = 0
KFR1 042018Z 12007KT 32/17 A3005 RMK A01 T03240171  RH  040%=      5-min Rain = 0
KFR1 042019Z 12008KT 32/17 A3005 RMK A01 T03240170  RH  040%=      5-min Rain = 0
KFR1 042020Z 13006KT 32/17 A3004 RMK A01 T03230170  RH  040%=      5-min Rain = 0
KFR1 042021Z 16005KT 32/18 A3004 RMK A01 T03240176  RH  041%=      5-min Rain = 0
KFR1 042022Z 15007KT 33/18 A3004 RMK A01 T03300175  RH  040%=      5-min Rain = 0
KFR1 042023Z 04004KT 33/17 A3004 RMK A01 T03330173  RH  039%=      5-min Rain = 0
KFR1 042024Z 06009KT 33/17 A3004 RMK A01 T03300173  RH  039%=      5-min Rain = 0
KFR1 042025Z 12006G11KT 33/17 A3004 RMK A01 T03260173  RH  040%=      5-min Rain = 0
KFR1 042026Z 09009KT 33/18 A3004 RMK A01 T03270175  RH  040%=      5-min Rain = 0
KFR1 042027Z 07008KT 33/17 A3004 RMK A01 T03280171  RH  039%=      5-min Rain = 0
KFR1 042028Z 08008G13KT 32/17 A3004 RMK A01 T03240170  RH  040%=      5-min Rain = 0
KFR1 042029Z 11011KT 33/17 A3004 RMK A01 T03250172  RH  040%=      5-min Rain = 0
KFR1 042030Z 10008KT 33/17 A3004 RMK A01 T03270172  RH  040%=      5-min Rain = 0
KFR1 042031Z 11005KT 33/17 A3004 RMK A01 T03270170  RH  039%=      5-min Rain = 0
KFR1 042032Z 11004KT 33/17 A3004 RMK A01 T03270174  RH  040%=      5-min Rain = 0
KFR1 042033Z 11004KT 33/17 A3004 RMK A01 T03280173  RH  040%=      5-min Rain = 0
KFR1 042034Z 10005KT 33/17 A3004 RMK A01 T03280168  RH  038%=      5-min Rain = 0
KFR1 042035Z 10008KT 33/17 A3004 RMK A01 T03260169  RH  039%=      5-min Rain = 0
KFR1 042036Z 13004KT 32/17 A3004 RMK A01 T03230169  RH  040%=      5-min Rain = 0
KFR1 042037Z 10006KT 32/17 A3004 RMK A01 T03230171  RH  040%=      5-min Rain = 0
KFR1 042038Z 08005KT 32/17 A3004 RMK A01 T03210169  RH  040%=      5-min Rain = 0
KFR1 042039Z 11008KT 32/17 A3004 RMK A01 T03220173  RH  041%=      5-min Rain = 0
KFR1 042040Z 10009KT 32/17 A3004 RMK A01 T03220171  RH  040%=      5-min Rain = 0
KFR1 042041Z 11010KT 32/17 A3004 RMK A01 T03220170  RH  040%=      5-min Rain = 0
KFR1 042042Z 09008KT 32/17 A3004 RMK A01 T03220169  RH  040%=      5-min Rain = 0
KFR1 042043Z 11007KT 32/17 A3004 RMK A01 T03190170  RH  041%=      5-min Rain = 0
KFR1 042044Z 07008KT 32/17 A3004 RMK A01 T03200169  RH  040%=      5-min Rain = 0
KFR1 042045Z 10007KT 32/17 A3004 RMK A01 T03220170  RH  040%=      5-min Rain = 0
KFR1 042046Z 10006KT 32/17 A3003 RMK A01 T03230168  RH  039%=      5-min Rain = 0
KFR1 042047Z 11008KT 32/17 A3003 RMK A01 T03210169  RH  040%=      5-min Rain = 0
KFR1 042048Z 10006KT 32/17 A3003 RMK A01 T03200165  RH  039%=      5-min Rain = 0
KFR1 042049Z 11005KT 32/17 A3003 RMK A01 T03170167  RH  040%=      5-min Rain = 0
KFR1 042050Z 11003KT 32/17 A3003 RMK A01 T03170166  RH  040%=      5-min Rain = 0
KFR1 042051Z 11003KT 32/17 A3003 RMK A01 T03170166  RH  040%=      5-min Rain = 0
KFR1 042052Z 10004KT 32/17 A3003 RMK A01 T03170165  RH  040%=      5-min Rain = 0
KFR1 042053Z 06004KT 32/17 A3003 RMK A01 T03180166  RH  040%=      5-min Rain = 0
KFR1 042054Z 08004KT 32/17 A3003 RMK A01 T03200167  RH  040%=      5-min Rain = 0
KFR1 042055Z 09005KT 32/17 A3003 RMK A01 T03220168  RH  040%=      5-min Rain = 0
KFR1 042056Z 10004KT 32/16 A3003 RMK A01 T03220164  RH  039%=      5-min Rain = 0
KFR1 042057Z 19002KT 32/16 A3003 RMK A01 T03210162  RH  039%=      5-min Rain = 0
KFR1 042058Z 23002KT 32/16 A3003 RMK A01 T03210163  RH  039%=      5-min Rain = 0
KFR1 042059Z 03003KT 32/17 A3003 RMK A01 T03230172  RH  041%=      5-min Rain = 0
KFR1 042100Z 01003KT 33/17 A3003 RMK A01 T03260170  RH  039%=      5-min Rain = 0
KFR1 042101Z 08004KT 33/17 A3003 RMK A01 T03270171  RH  039%=      5-min Rain = 0
KFR1 042102Z 11006KT 33/17 A3003 RMK A01 T03280169  RH  039%=      5-min Rain = 0
KFR1 042103Z 13006KT 33/17 A3003 RMK A01 T03300168  RH  038%=      5-min Rain = 0
KFR1 042104Z 14005KT 33/17 A3003 RMK A01 T03300166  RH  038%=      5-min Rain = 0
KFR1 042105Z 12007KT 33/17 A3003 RMK A01 T03300166  RH  038%=      5-min Rain = 0
KFR1 042106Z 12005KT 33/17 A3002 RMK A01 T03300168  RH  038%=      5-min Rain = 0
KFR1 042107Z 15003KT 33/17 A3002 RMK A01 T03300167  RH  038%=      5-min Rain = 0
KFR1 042108Z 13003KT 33/17 A3002 RMK A01 T03300168  RH  038%=      5-min Rain = 0
KFR1 042109Z 11004KT 33/16 A3002 RMK A01 T03290162  RH  037%=      5-min Rain = 0
KFR1 042110Z 14002KT 33/17 A3002 RMK A01 T03270165  RH  038%=      5-min Rain = 0
KFR1 042111Z 10003KT 33/17 A3002 RMK A01 T03260168  RH  039%=      5-min Rain = 0
KFR1 042112Z 07002KT 33/17 A3002 RMK A01 T03270168  RH  039%=      5-min Rain = 0
KFR1 042113Z 08004KT 33/17 A3002 RMK A01 T03270169  RH  039%=      5-min Rain = 0
KFR1 042114Z 08010KT 33/17 A3002 RMK A01 T03260168  RH  039%=      5-min Rain = 0
KFR1 042115Z 09012KT 33/17 A3002 RMK A01 T03250168  RH  039%=      5-min Rain = 0
KFR1 042116Z 09009KT 33/17 A3002 RMK A01 T03250170  RH  040%=      5-min Rain = 0
KFR1 042117Z 09008KT 33/17 A3002 RMK A01 T03260172  RH  040%=      5-min Rain = 0
KFR1 042118Z 09009KT 33/17 A3002 RMK A01 T03270171  RH  040%=      5-min Rain = 0
KFR1 042119Z 09010KT 33/17 A3002 RMK A01 T03260168  RH  039%=      5-min Rain = 0
KFR1 042120Z 08009KT 32/17 A3002 RMK A01 T03240168  RH  039%=      5-min Rain = 0
KFR1 042121Z 07009KT 32/17 A3002 RMK A01 T03220165  RH  039%=      5-min Rain = 0
KFR1 042122Z 07012KT 32/16 A3002 RMK A01 T03200164  RH  039%=      5-min Rain = 0
KFR1 042123Z 06011KT 32/16 A3002 RMK A01 T03190163  RH  039%=      5-min Rain = 0
KFR1 042124Z 05006KT 32/16 A3002 RMK A01 T03180164  RH  040%=      5-min Rain = 0
KFR1 042125Z 07005KT 32/16 A3002 RMK A01 T03180162  RH  039%=      5-min Rain = 0
KFR1 042126Z 09006KT 32/17 A3002 RMK A01 T03170165  RH  040%=      5-min Rain = 0
KFR1 042127Z 08008KT 32/17 A3002 RMK A01 T03180167  RH  040%=      5-min Rain = 0
KFR1 042128Z 08007KT 32/17 A3002 RMK A01 T03200165  RH  040%=      5-min Rain = 0
KFR1 042129Z 07006KT 32/16 A3002 RMK A01 T03200163  RH  039%=      5-min Rain = 0
KFR1 042130Z 08004KT 32/16 A3002 RMK A01 T03200162  RH  039%=      5-min Rain = 0
KFR1 042131Z 09003KT 32/16 A3002 RMK A01 T03200164  RH  039%=      5-min Rain = 0
KFR1 042132Z 06002KT 32/16 A3002 RMK A01 T03200164  RH  039%=      5-min Rain = 0
KFR1 042133Z 08006G11KT 32/17 A3002 RMK A01 T03200165  RH  039%=      5-min Rain = 0
KFR1 042134Z 08011KT 32/17 A3002 RMK A01 T03220170  RH  040%=      5-min Rain = 0
KFR1 042135Z 08012KT 32/17 A3002 RMK A01 T03230168  RH  039%=      5-min Rain = 0
KFR1 042136Z 08011G17KT 32/17 A3002 RMK A01 T03220170  RH  040%=      5-min Rain = 0
KFR1 042137Z 11012G21KT 32/17 A3002 RMK A01 T03210173  RH  041%=      5-min Rain = 0
KFR1 042138Z 11018KT 32/18 A3002 RMK A01 T03150176  RH  043%=      5-min Rain = 0
KFR1 042139Z 11015KT 31/18 A3002 RMK A01 T03090177  RH  045%=      5-min Rain = 0
KFR1 042140Z 10016KT 31/18 A3002 RMK A01 T03070177  RH  046%=      5-min Rain = 0
KFR1 042141Z 10015G23KT 31/18 A3002 RMK A01 T03050177  RH  046%=      5-min Rain = 0
KFR1 042142Z 10018KT 31/18 A3001 RMK A01 T03050177  RH  046%=      5-min Rain = 0
KFR1 042143Z 11018G23KT 30/18 A3001 RMK A01 T03030177  RH  047%=      5-min Rain = 0
KFR1 042144Z 12018KT 30/18 A3001 RMK A01 T03020176  RH  047%=      5-min Rain = 0
KFR1 042145Z 11016KT 30/18 A3002 RMK A01 T03020176  RH  047%=      5-min Rain = 0
KFR1 042146Z 11015KT 30/18 A3001 RMK A01 T03020176  RH  047%=      5-min Rain = 0
KFR1 042147Z 11018KT 30/18 A3001 RMK A01 T03020176  RH  047%=      5-min Rain = 0
KFR1 042148Z 11017KT 30/18 A3001 RMK A01 T03020176  RH  047%=      5-min Rain = 0
KFR1 042149Z 11018KT 30/18 A3001 RMK A01 T03020175  RH  047%=      5-min Rain = 0
KFR1 042150Z 11017KT 30/18 A3001 RMK A01 T03020177  RH  047%=      5-min Rain = 0
KFR1 042151Z 11016KT 30/18 A3001 RMK A01 T03040178  RH  047%=      5-min Rain = 0
KFR1 042152Z 12019KT 31/18 A3001 RMK A01 T03080177  RH  046%=      5-min Rain = 0
KFR1 042153Z 12017KT 31/18 A3001 RMK A01 T03090176  RH  045%=      5-min Rain = 0
KFR1 042154Z 12017G22KT 31/18 A3001 RMK A01 T03100176  RH  045%=      5-min Rain = 0
KFR1 042155Z 11016KT 31/18 A3001 RMK A01 T03120179  RH  045%=      5-min Rain = 0
KFR1 042156Z 11018KT 31/18 A3001 RMK A01 T03130178  RH  044%=      5-min Rain = 0
KFR1 042157Z 11018KT 31/18 A3001 RMK A01 T03130177  RH  044%=      5-min Rain = 0
KFR1 042158Z 10019KT 31/18 A3001 RMK A01 T03130176  RH  044%=      5-min Rain = 0
KFR1 042159Z 10017KT 31/18 A3001 RMK A01 T03120176  RH  044%=      5-min Rain = 0
KFR1 042200Z 11014KT 31/18 A3001 RMK A01 T03120177  RH  044%=      5-min Rain = 0
KFR1 042201Z 12014G19KT 31/18 A3001 RMK A01 T03130177  RH  044%=      5-min Rain = 0
KFR1 042202Z 13016KT 31/17 A3001 RMK A01 T03120174  RH  044%=      5-min Rain = 0
KFR1 042203Z 13012KT 31/17 A3001 RMK A01 T03110174  RH  044%=      5-min Rain = 0
KFR1 042204Z 13012G17KT 31/18 A3001 RMK A01 T03110175  RH  044%=      5-min Rain = 0
KFR1 042205Z 13016KT 31/18 A3001 RMK A01 T03120175  RH  044%=      5-min Rain = 0
KFR1 042206Z 13012KT 31/18 A3001 RMK A01 T03100176  RH  045%=      5-min Rain = 0
KFR1 042207Z 12014G23KT 31/18 A3001 RMK A01 T03120178  RH  045%=      5-min Rain = 0
KFR1 042208Z 11014G19KT 31/18 A3001 RMK A01 T03130177  RH  044%=      5-min Rain = 0
KFR1 042209Z 12013KT 32/18 A3001 RMK A01 T03150178  RH  044%=      5-min Rain = 0
KFR1 042210Z 13012G17KT 32/18 A3001 RMK A01 T03160178  RH  044%=      5-min Rain = 0
KFR1 042211Z 11014KT 32/18 A3001 RMK A01 T03170177  RH  043%=      5-min Rain = 0
KFR1 042212Z 11011KT 32/18 A3001 RMK A01 T03160179  RH  044%=      5-min Rain = 0
KFR1 042213Z 11014KT 32/18 A3001 RMK A01 T03190181  RH  044%=      5-min Rain = 0
KFR1 042214Z 10015KT 32/18 A3001 RMK A01 T03190176  RH  042%=      5-min Rain = 0
KFR1 042215Z 10013KT 32/18 A3001 RMK A01 T03190177  RH  043%=      5-min Rain = 0
KFR1 042216Z 10015KT 32/18 A3001 RMK A01 T03180175  RH  043%=      5-min Rain = 0
KFR1 042217Z 10015KT 32/18 A3001 RMK A01 T03160176  RH  043%=      5-min Rain = 0
KFR1 042218Z 11015KT 32/18 A3001 RMK A01 T03160176  RH  043%=      5-min Rain = 0
KFR1 042219Z 10013KT 32/18 A3001 RMK A01 T03150177  RH  044%=      5-min Rain = 0
KFR1 042220Z 10010KT 32/18 A3001 RMK A01 T03170177  RH  043%=      5-min Rain = 0
KFR1 042221Z 10011KT 32/18 A3001 RMK A01 T03180179  RH  043%=      5-min Rain = 0
KFR1 042222Z 11012KT 32/18 A30 RMK A01 T03190176  RH  043%=      5-min Rain = 0
KFR1 042223Z 12011KT 32/18 A3001 RMK A01 T03200177  RH  043%=      5-min Rain = 0
KFR1 042224Z 11011KT 32/18 A30 RMK A01 T03190178  RH  043%=      5-min Rain = 0
KFR1 042225Z 11011KT 32/18 A3001 RMK A01 T03200178  RH  043%=      5-min Rain = 0
KFR1 042226Z 12010KT 32/18 A3001 RMK A01 T03200176  RH  042%=      5-min Rain = 0
KFR1 042227Z 12008KT 32/18 A3001 RMK A01 T03200177  RH  043%=      5-min Rain = 0
KFR1 042228Z 10014KT 32/18 A3001 RMK A01 T03230178  RH  042%=      5-min Rain = 0
KFR1 042229Z 11012KT 32/18 A3001 RMK A01 T03210175  RH  042%=      5-min Rain = 0
KFR1 042230Z 11012KT 32/18 A3001 RMK A01 T03200175  RH  042%=      5-min Rain = 0
KFR1 042231Z 11011KT 32/17 A3001 RMK A01 T03200173  RH  042%=      5-min Rain = 0
KFR1 042232Z 12012KT 32/17 A3001 RMK A01 T03190173  RH  042%=      5-min Rain = 0
KFR1 042233Z 12009KT 32/17 A30 RMK A01 T03180170  RH  041%=      5-min Rain = 0
KFR1 042234Z 13010KT 32/17 A30 RMK A01 T03180172  RH  042%=      5-min Rain = 0
KFR1 042235Z 12009KT 32/17 A30 RMK A01 T03180171  RH  041%=      5-min Rain = 0
KFR1 042236Z 11011KT 32/18 A30 RMK A01 T03190175  RH  042%=      5-min Rain = 0
KFR1 042237Z 11010KT 32/17 A30 RMK A01 T03200173  RH  041%=      5-min Rain = 0
KFR1 042238Z 11009KT 32/17 A30 RMK A01 T03190173  RH  042%=      5-min Rain = 0
KFR1 042239Z 12010KT 32/17 A30 RMK A01 T03200173  RH  042%=      5-min Rain = 0
KFR1 042240Z 13008KT 32/17 A30 RMK A01 T03210173  RH  041%=      5-min Rain = 0
KFR1 042241Z 13009KT 32/17 A30 RMK A01 T03220171  RH  040%=      5-min Rain = 0
KFR1 042242Z 14005KT 32/17 A30 RMK A01 T03200171  RH  041%=      5-min Rain = 0
KFR1 042243Z 15007KT 32/17 A30 RMK A01 T03210172  RH  041%=      5-min Rain = 0
KFR1 042244Z 15005KT 32/17 A30 RMK A01 T03220172  RH  041%=      5-min Rain = 0
KFR1 042245Z 10008KT 32/17 A30 RMK A01 T03230174  RH  041%=      5-min Rain = 0
KFR1 042246Z 10009KT 32/17 A30 RMK A01 T03240173  RH  040%=      5-min Rain = 0
KFR1 042247Z 10010KT 32/17 A30 RMK A01 T03220171  RH  040%=      5-min Rain = 0
KFR1 042248Z 11009KT 32/17 A30 RMK A01 T03200169  RH  040%=      5-min Rain = 0
KFR1 042249Z 11006KT 32/17 A30 RMK A01 T03190169  RH  040%=      5-min Rain = 0
KFR1 042250Z 12005KT 32/17 A30 RMK A01 T03200170  RH  041%=      5-min Rain = 0
KFR1 042251Z 15005KT 32/17 A30 RMK A01 T03200170  RH  041%=      5-min Rain = 0
KFR1 042252Z 13006KT 32/17 A30 RMK A01 T03220169  RH  040%=      5-min Rain = 0
KFR1 042253Z 13006KT 32/17 A30 RMK A01 T03220169  RH  040%=      5-min Rain = 0
KFR1 042254Z 12005KT 32/17 A30 RMK A01 T03220172  RH  041%=      5-min Rain = 0
KFR1 042255Z 11008KT 32/17 A30 RMK A01 T03220173  RH  041%=      5-min Rain = 0
KFR1 042256Z 12007KT 32/17 A30 RMK A01 T03240173  RH  041%=      5-min Rain = 0
KFR1 042257Z 12006KT 32/17 A30 RMK A01 T03240170  RH  040%=      5-min Rain = 0
KFR1 042258Z 09006KT 32/17 A30 RMK A01 T03240174  RH  041%=      5-min Rain = 0
KFR1 042259Z 09008KT 32/17 A30 RMK A01 T03240171  RH  040%=      5-min Rain = 0
KFR1 042300Z 10007KT 32/17 A30 RMK A01 T03220168  RH  040%=      5-min Rain = 0
KFR1 042301Z 11005KT 32/17 A30 RMK A01 T03200170  RH  041%=      5-min Rain = 0
KFR1 042302Z 10008KT 32/17 A2999 RMK A01 T03220172  RH  041%=      5-min Rain = 0
KFR1 042303Z 13006KT 32/17 A30 RMK A01 T03230170  RH  040%=      5-min Rain = 0
KFR1 042304Z 12007KT 32/17 A30 RMK A01 T03240173  RH  041%=      5-min Rain = 0
KFR1 042305Z 11008KT 33/17 A30 RMK A01 T03260174  RH  040%=      5-min Rain = 0
KFR1 042306Z 11007KT 33/17 A2999 RMK A01 T03250169  RH  039%=      5-min Rain = 0
KFR1 042307Z 11006KT 32/17 A2999 RMK A01 T03230171  RH  040%=      5-min Rain = 0
KFR1 042308Z 11008KT 32/17 A2999 RMK A01 T03230173  RH  041%=      5-min Rain = 0
KFR1 042309Z 13007KT 32/17 A2999 RMK A01 T03220171  RH  040%=      5-min Rain = 0
KFR1 042310Z 12005KT 32/17 A2999 RMK A01 T03220173  RH  041%=      5-min Rain = 0
KFR1 042311Z 10006KT 32/17 A2999 RMK A01 T03240174  RH  041%=      5-min Rain = 0
KFR1 042312Z 10007KT 32/17 A2999 RMK A01 T03240174  RH  041%=      5-min Rain = 0
KFR1 042313Z 12006KT 33/17 A2999 RMK A01 T03250173  RH  040%=      5-min Rain = 0
KFR1 042314Z 11006KT 32/17 A2999 RMK A01 T03240171  RH  040%=      5-min Rain = 0
KFR1 042315Z 11007KT 32/17 A2999 RMK A01 T03230171  RH  040%=      5-min Rain = 0
KFR1 042316Z 09003KT 32/17 A2999 RMK A01 T03220172  RH  041%=      5-min Rain = 0
KFR1 042317Z 09002KT 32/17 A2999 RMK A01 T03220173  RH  041%=      5-min Rain = 0
KFR1 042318Z 10004G9KT 32/17 A2999 RMK A01 T03220170  RH  040%=      5-min Rain = 0
KFR1 042319Z 09008KT 32/18 A2999 RMK A01 T03220175  RH  041%=      5-min Rain = 0
KFR1 042320Z 10009KT 32/17 A2999 RMK A01 T03240172  RH  040%=      5-min Rain = 0
KFR1 042321Z 11006KT 32/17 A2999 RMK A01 T03230170  RH  040%=      5-min Rain = 0
KFR1 042322Z 12006KT 32/17 A2999 RMK A01 T03220173  RH  041%=      5-min Rain = 0
KFR1 042323Z 12007KT 32/17 A2999 RMK A01 T03240174  RH  041%=      5-min Rain = 0
KFR1 042324Z 15008KT 32/18 A2999 RMK A01 T03240175  RH  041%=      5-min Rain = 0
KFR1 042325Z 14011G16KT 32/18 A2999 RMK A01 T03240178  RH  042%=      5-min Rain = 0
KFR1 042326Z 14011KT 32/18 A2999 RMK A01 T03220177  RH  042%=      5-min Rain = 0
KFR1 042327Z 14012KT 32/18 A2999 RMK A01 T03170175  RH  043%=      5-min Rain = 0
KFR1 042328Z 14008G14KT 32/18 A2999 RMK A01 T03150176  RH  043%=      5-min Rain = 0
KFR1 042329Z 12011KT 31/18 A2999 RMK A01 T03140176  RH  044%=      5-min Rain = 0
KFR1 042330Z 12010KT 31/18 A2999 RMK A01 T03130175  RH  044%=      5-min Rain = 0
KFR1 042331Z 13009KT 31/18 A2999 RMK A01 T03120176  RH  044%=      5-min Rain = 0
KFR1 042332Z 13010KT 31/17 A2999 RMK A01 T03110174  RH  044%=      5-min Rain = 0
KFR1 042333Z 13008KT 31/18 A2999 RMK A01 T03110175  RH  044%=      5-min Rain = 0
KFR1 042334Z 13009KT 31/18 A2999 RMK A01 T03110175  RH  044%=      5-min Rain = 0
KFR1 042335Z 14006KT 31/18 A2999 RMK A01 T03110175  RH  044%=      5-min Rain = 0
KFR1 042336Z 14006KT 31/18 A2999 RMK A01 T03110175  RH  044%=      5-min Rain = 0
KFR1 042337Z 12007KT 31/17 A2999 RMK A01 T03110174  RH  044%=      5-min Rain = 0
KFR1 042338Z 12009KT 31/17 A2999 RMK A01 T03110174  RH  044%=      5-min Rain = 0
KFR1 042339Z 11008KT 31/17 A2999 RMK A01 T03110174  RH  044%=      5-min Rain = 0
KFR1 042340Z 11007KT 31/17 A2999 RMK A01 T03100174  RH  044%=      5-min Rain = 0
KFR1 042341Z 11010KT 31/17 A2998 RMK A01 T03100173  RH  044%=      5-min Rain = 0
KFR1 042342Z 11008KT 31/17 A2998 RMK A01 T03110174  RH  044%=      5-min Rain = 0
KFR1 042343Z 11011KT 31/17 A2998 RMK A01 T03130173  RH  043%=      5-min Rain = 0
KFR1 042344Z 13012KT 31/17 A2998 RMK A01 T03140172  RH  043%=      5-min Rain = 0
KFR1 042345Z 13010KT 31/17 A2998 RMK A01 T03140170  RH  042%=      5-min Rain = 0
KFR1 042346Z 13009G15KT 31/17 A2998 RMK A01 T03140171  RH  042%=      5-min Rain = 0
KFR1 042347Z 12009KT 32/17 A2998 RMK A01 T03150173  RH  043%=      5-min Rain = 0
KFR1 042348Z 12011G16KT 32/17 A2998 RMK A01 T03160173  RH  042%=      5-min Rain = 0
KFR1 042349Z 11012KT 32/17 A2998 RMK A01 T03170172  RH  042%=      5-min Rain = 0
KFR1 042350Z 11010KT 32/17 A2998 RMK A01 T03160173  RH  042%=      5-min Rain = 0
KFR1 042351Z 10010KT 32/17 A2998 RMK A01 T03150172  RH  042%=      5-min Rain = 0
KFR1 042352Z 12010KT 32/17 A2998 RMK A01 T03150173  RH  043%=      5-min Rain = 0
KFR1 042353Z 13010KT 32/17 A2998 RMK A01 T03160172  RH  042%=      5-min Rain = 0
KFR1 042354Z 13007KT 32/17 A2998 RMK A01 T03160173  RH  042%=      5-min Rain = 0
KFR1 042355Z 15008G13KT 32/17 A2998 RMK A01 T03180172  RH  042%=      5-min Rain = 0
KFR1 042356Z 14005KT 32/17 A2998 RMK A01 T03180170  RH  041%=      5-min Rain = 0
KFR1 042357Z 14007G13KT 32/17 A2998 RMK A01 T03180171  RH  041%=      5-min Rain = 0
KFR1 042358Z 13011KT 32/17 A2998 RMK A01 T03180172  RH  042%=      5-min Rain = 0
KFR1 042359Z 13010KT 32/17 A2998 RMK A01 T03170172  RH  042%=      5-min Rain = 0
KFR1 050000Z 13007KT 32/17 A2998 RMK A01 T03160172  RH  042%=      5-min Rain = 0
KFR1 050001Z 13008KT 32/17 A2998 RMK A01 T03150171  RH  042%=      5-min Rain = 0
KFR1 050002Z 13008KT 32/17 A2998 RMK A01 T03160171  RH  042%=      5-min Rain = 0
KFR1 050003Z 12009KT 32/17 A2998 RMK A01 T03150170  RH  042%=      5-min Rain = 0
KFR1 050004Z 12011KT 32/17 A2998 RMK A01 T03150172  RH  042%=      5-min Rain = 0
KFR1 050005Z 12009KT 32/17 A2998 RMK A01 T03150171  RH  042%=      5-min Rain = 0
KFR1 050006Z 12011KT 32/17 A2998 RMK A01 T03150171  RH  042%=      5-min Rain = 0
KFR1 050007Z 11011KT 32/17 A2998 RMK A01 T03150171  RH  042%=      5-min Rain = 0
KFR1 050008Z 11010KT 32/17 A2998 RMK A01 T03150171  RH  042%=      5-min Rain = 0
KFR1 050009Z 11008KT 32/17 A2998 RMK A01 T03150171  RH  042%=      5-min Rain = 0
KFR1 050010Z 12006KT 32/17 A2998 RMK A01 T03160173  RH  043%=      5-min Rain = 0
KFR1 050011Z 12007KT 32/17 A2998 RMK A01 T03170173  RH  042%=      5-min Rain = 0
KFR1 050012Z 11012KT 32/18 A2998 RMK A01 T03170175  RH  043%=      5-min Rain = 0
KFR1 050013Z 10012KT 32/17 A2998 RMK A01 T03160173  RH  042%=      5-min Rain = 0
KFR1 050014Z 11012KT 31/17 A2998 RMK A01 T03140173  RH  043%=      5-min Rain = 0
KFR1 050015Z 12011KT 31/17 A2998 RMK A01 T03130174  RH  043%=      5-min Rain = 0
KFR1 050016Z 12010KT 31/17 A2998 RMK A01 T03130172  RH  043%=      5-min Rain = 0
KFR1 050017Z 11011KT 31/17 A2998 RMK A01 T03130174  RH  043%=      5-min Rain = 0
KFR1 050018Z 11011KT 31/17 A2998 RMK A01 T03140173  RH  043%=      5-min Rain = 0
KFR1 050019Z 11007KT 31/17 A2998 RMK A01 T03140173  RH  043%=      5-min Rain = 0
KFR1 050020Z 12014G20KT 31/18 A2998 RMK A01 T03140176  RH  044%=      5-min Rain = 0
KFR1 050021Z 14014G19KT 31/18 A2998 RMK A01 T03130180  RH  045%=      5-min Rain = 0
KFR1 050022Z 13017KT 31/18 A2998 RMK A01 T03110179  RH  045%=      5-min Rain = 0
KFR1 050023Z 13013G20KT 31/18 A2998 RMK A01 T03070179  RH  046%=      5-min Rain = 0
KFR1 050024Z 15010G16KT 31/18 A2998 RMK A01 T03070181  RH  047%=      5-min Rain = 0
KFR1 050025Z 14014G19KT 31/18 A2998 RMK A01 T03070182  RH  047%=      5-min Rain = 0
KFR1 050026Z 13014KT 30/18 A2998 RMK A01 T03040183  RH  048%=      5-min Rain = 0
KFR1 050027Z 14013G19KT 30/18 A2998 RMK A01 T03010184  RH  049%=      5-min Rain = 0
KFR1 050028Z 14019KT 30/18 A2998 RMK A01 T03000183  RH  050%=      5-min Rain = 0
KFR1 050029Z 14018KT 30/18 A2999 RMK A01 T02970182  RH  050%=      5-min Rain = 0
KFR1 050030Z 15014KT 30/18 A2999 RMK A01 T02960182  RH  050%=      5-min Rain = 0
KFR1 050031Z 14011KT 30/18 A2999 RMK A01 T02960183  RH  051%=      5-min Rain = 0
KFR1 050032Z 13012KT 30/18 A2999 RMK A01 T02950183  RH  051%=      5-min Rain = 0
KFR1 050033Z 13016G22KT 30/18 A2998 RMK A01 T02950182  RH  051%=      5-min Rain = 0
KFR1 050034Z 13016KT 30/18 A2998 RMK A01 T02950181  RH  050%=      5-min Rain = 0
KFR1 050035Z 14016KT 30/18 A2998 RMK A01 T02950180  RH  050%=      5-min Rain = 0
KFR1 050036Z 14012G18KT 29/18 A2998 RMK A01 T02940180  RH  050%=      5-min Rain = 0
KFR1 050037Z 14012G17KT 30/18 A2998 RMK A01 T02950180  RH  050%=      5-min Rain = 0
KFR1 050038Z 14014KT 30/18 A2998 RMK A01 T02950180  RH  050%=      5-min Rain = 0
KFR1 050039Z 15011KT 30/18 A2998 RMK A01 T02950180  RH  050%=      5-min Rain = 0
KFR1 050040Z 12014G19KT 30/18 A2999 RMK A01 T02960180  RH  050%=      5-min Rain = 0
KFR1 050041Z 12015KT 30/18 A2999 RMK A01 T02960180  RH  050%=      5-min Rain = 0
KFR1 050042Z 12012KT 30/18 A2999 RMK A01 T02960180  RH  050%=      5-min Rain = 0
KFR1 050043Z 12016KT 30/18 A2999 RMK A01 T02970181  RH  050%=      5-min Rain = 0
KFR1 050044Z 13017KT 30/18 A2999 RMK A01 T02960181  RH  050%=      5-min Rain = 0
KFR1 050045Z 13014G19KT 30/18 A2999 RMK A01 T02960181  RH  050%=      5-min Rain = 0
KFR1 050046Z 13015G20KT 30/18 A2999 RMK A01 T02950181  RH  050%=      5-min Rain = 0
KFR1 050047Z 14015G20KT 30/18 A2999 RMK A01 T02950180  RH  050%=      5-min Rain = 0
KFR1 050048Z 12017G22KT 29/18 A2999 RMK A01 T02940178  RH  050%=      5-min Rain = 0
KFR1 050049Z 13019G25KT 29/18 A2999 RMK A01 T02940176  RH  049%=      5-min Rain = 0
KFR1 050050Z 13016G21KT 29/18 A2999 RMK A01 T02930175  RH  049%=      5-min Rain = 0
KFR1 050051Z 14015G20KT 29/18 A2999 RMK A01 T02930175  RH  049%=      5-min Rain = 0
KFR1 050052Z 14014G20KT 29/18 A30 RMK A01 T02920175  RH  049%=      5-min Rain = 0
KFR1 050053Z 14014KT 29/18 A30 RMK A01 T02920175  RH  049%=      5-min Rain = 0
KFR1 050054Z 13012KT 29/18 A30 RMK A01 T02930175  RH  049%=      5-min Rain = 0
KFR1 050055Z 14013G18KT 29/17 A30 RMK A01 T02930174  RH  049%=      5-min Rain = 0
KFR1 050056Z 13013KT 29/17 A30 RMK A01 T02930173  RH  048%=      5-min Rain = 0
KFR1 050057Z 14012KT 29/17 A30 RMK A01 T02930174  RH  049%=      5-min Rain = 0
KFR1 050058Z 14013G19KT 29/18 A30 RMK A01 T02930175  RH  049%=      5-min Rain = 0
KFR1 050059Z 13012KT 29/18 A30 RMK A01 T02930175  RH  049%=      5-min Rain = 0
KFR1 050100Z 13011KT 29/18 A30 RMK A01 T02930175  RH  049%=      5-min Rain = 0
KFR1 050101Z 13015KT 29/17 A30 RMK A01 T02930173  RH  049%=      5-min Rain = 0
KFR1 050102Z 14014KT 29/17 A30 RMK A01 T02930171  RH  048%=      5-min Rain = 0
KFR1 050103Z 13013KT 29/17 A30 RMK A01 T02930172  RH  048%=      5-min Rain = 0
KFR1 050104Z 13011G16KT 29/17 A30 RMK A01 T02930171  RH  048%=      5-min Rain = 0
KFR1 050105Z 13012G17KT 29/17 A30 RMK A01 T02930172  RH  048%=      5-min Rain = 0
KFR1 050106Z 13013KT 29/17 A30 RMK A01 T02920172  RH  048%=      5-min Rain = 0
KFR1 050107Z 13012KT 29/17 A30 RMK A01 T02920172  RH  048%=      5-min Rain = 0
KFR1 050108Z 14012KT 29/18 A30 RMK A01 T02920175  RH  049%=      5-min Rain = 0
KFR1 050109Z 14008KT 29/18 A30 RMK A01 T02920181  RH  051%=      5-min Rain = 0
KFR1 050110Z 14008KT 29/18 A30 RMK A01 T02910183  RH  052%=      5-min Rain = 0
KFR1 050111Z 13011KT 29/18 A30 RMK A01 T02900183  RH  052%=      5-min Rain = 0
KFR1 050112Z 13013G18KT 29/18 A30 RMK A01 T02900181  RH  052%=      5-min Rain = 0
KFR1 050113Z 14013G19KT 29/18 A30 RMK A01 T02890179  RH  051%=      5-min Rain = 0
KFR1 050114Z 15013KT 29/18 A30 RMK A01 T02890177  RH  051%=      5-min Rain = 0
KFR1 050115Z 14013G18KT 29/18 A30 RMK A01 T02880175  RH  051%=      5-min Rain = 0
KFR1 050116Z 14014G19KT 29/17 A30 RMK A01 T02870174  RH  050%=      5-min Rain = 0
KFR1 050117Z 14013G18KT 29/17 A30 RMK A01 T02870174  RH  050%=      5-min Rain = 0
KFR1 050118Z 14012G17KT 29/17 A30 RMK A01 T02870174  RH  050%=      5-min Rain = 0
KFR1 050119Z 14011KT 29/17 A30 RMK A01 T02870174  RH  050%=      5-min Rain = 0
KFR1 050120Z 13011KT 29/17 A30 RMK A01 T02870174  RH  051%=      5-min Rain = 0
KFR1 050121Z 14011KT 29/17 A30 RMK A01 T02870174  RH  051%=      5-min Rain = 0
KFR1 050122Z 14008G14KT 29/17 A30 RMK A01 T02860174  RH  051%=      5-min Rain = 0
KFR1 050123Z 15011KT 29/17 A30 RMK A01 T02860174  RH  051%=      5-min Rain = 0
KFR1 050124Z 15011G16KT 29/18 A30 RMK A01 T02860175  RH  051%=      5-min Rain = 0
KFR1 050125Z 13012KT 29/17 A30 RMK A01 T02860174  RH  051%=      5-min Rain = 0
KFR1 050126Z 14010G16KT 29/17 A30 RMK A01 T02860174  RH  051%=      5-min Rain = 0
KFR1 050127Z 14010G15KT 29/17 A30 RMK A01 T02860174  RH  051%=      5-min Rain = 0
KFR1 050128Z 14011KT 29/17 A30 RMK A01 T02850174  RH  051%=      5-min Rain = 0
KFR1 050129Z 13013KT 29/17 A30 RMK A01 T02850174  RH  051%=      5-min Rain = 0
KFR1 050130Z 13010KT 29/17 A30 RMK A01 T02850174  RH  051%=      5-min Rain = 0
KFR1 050131Z 14009KT 28/17 A30 RMK A01 T02840174  RH  051%=      5-min Rain = 0
KFR1 050132Z 14008G13KT 28/18 A30 RMK A01 T02840175  RH  051%=      5-min Rain = 0
KFR1 050133Z 14008KT 28/18 A30 RMK A01 T02840175  RH  052%=      5-min Rain = 0
KFR1 050134Z 14009KT 28/18 A30 RMK A01 T02840176  RH  052%=      5-min Rain = 0
KFR1 050135Z 15006G11KT 28/18 A30 RMK A01 T02840177  RH  052%=      5-min Rain = 0
KFR1 050136Z 14008KT 28/18 A30 RMK A01 T02840178  RH  053%=      5-min Rain = 0
KFR1 050137Z 15009KT 28/18 A30 RMK A01 T02840180  RH  053%=      5-min Rain = 0
KFR1 050138Z 15009G16KT 28/18 A30 RMK A01 T02830181  RH  054%=      5-min Rain = 0
KFR1 050139Z 15009KT 28/18 A30 RMK A01 T02830183  RH  055%=      5-min Rain = 0
KFR1 050140Z 15008G13KT 28/18 A30 RMK A01 T02820183  RH  055%=      5-min Rain = 0
KFR1 050141Z 14009G14KT 28/18 A30 RMK A01 T02820182  RH  055%=      5-min Rain = 0
KFR1 050142Z 15009KT 28/18 A30 RMK A01 T02810182  RH  055%=      5-min Rain = 0
KFR1 050143Z 14009KT 28/18 A30 RMK A01 T02810181  RH  055%=      5-min Rain = 0
KFR1 050144Z 14010KT 28/18 A30 RMK A01 T02810180  RH  054%=      5-min Rain = 0
KFR1 050145Z 14009KT 28/18 A30 RMK A01 T02810180  RH  054%=      5-min Rain = 0
KFR1 050146Z 13009KT 28/18 A30 RMK A01 T02810180  RH  054%=      5-min Rain = 0
KFR1 050147Z 13009KT 28/18 A30 RMK A01 T02810179  RH  054%=      5-min Rain = 0
KFR1 050148Z 14010KT 28/18 A30 RMK A01 T02810179  RH  054%=      5-min Rain = 0
KFR1 050149Z 14010KT 28/18 A30 RMK A01 T02800179  RH  054%=      5-min Rain = 0
KFR1 050150Z 13009KT 28/18 A30 RMK A01 T02800179  RH  054%=      5-min Rain = 0
KFR1 050151Z 14010KT 28/18 A30 RMK A01 T02800179  RH  054%=      5-min Rain = 0
KFR1 050152Z 13010KT 28/18 A30 RMK A01 T02800179  RH  054%=      5-min Rain = 0
KFR1 050153Z 13011KT 28/18 A30 RMK A01 T02800178  RH  054%=      5-min Rain = 0
KFR1 050154Z 13011KT 28/18 A30 RMK A01 T02790177  RH  054%=      5-min Rain = 0
KFR1 050155Z 13011KT 28/18 A30 RMK A01 T02790176  RH  053%=      5-min Rain = 0
KFR1 050156Z 13011KT 28/18 A30 RMK A01 T02790176  RH  053%=      5-min Rain = 0
KFR1 050157Z 14010KT 28/18 A30 RMK A01 T02800175  RH  053%=      5-min Rain = 0
KFR1 050158Z 13010KT 28/18 A30 RMK A01 T02800175  RH  053%=      5-min Rain = 0
KFR1 050159Z 14008G13KT 28/18 A30 RMK A01 T02800175  RH  053%=      5-min Rain = 0
KFR1 050200Z 14008KT 28/18 A30 RMK A01 T02790175  RH  053%=      5-min Rain = 0
KFR1 050201Z 14009KT 28/18 A30 RMK A01 T02790175  RH  053%=      5-min Rain = 0
KFR1 050202Z 13009KT 28/18 A30 RMK A01 T02790175  RH  053%=      5-min Rain = 0
KFR1 050203Z 13008KT 28/18 A30 RMK A01 T02780175  RH  053%=      5-min Rain = 0
KFR1 050204Z 13008KT 28/18 A30 RMK A01 T02780175  RH  053%=      5-min Rain = 0
KFR1 050205Z 13009KT 28/18 A30 RMK A01 T02780175  RH  053%=      5-min Rain = 0
KFR1 050206Z 14009KT 28/18 A30 RMK A01 T02780175  RH  053%=      5-min Rain = 0
KFR1 050207Z 13009KT 28/18 A30 RMK A01 T02780175  RH  053%=      5-min Rain = 0
KFR1 050208Z 13011KT 28/17 A30 RMK A01 T02770174  RH  053%=      5-min Rain = 0
KFR1 050209Z 12008KT 28/17 A30 RMK A01 T02770174  RH  053%=      5-min Rain = 0
KFR1 050210Z 12010KT 28/17 A30 RMK A01 T02760174  RH  054%=      5-min Rain = 0
KFR1 050211Z 13010KT 28/17 A30 RMK A01 T02770174  RH  054%=      5-min Rain = 0
KFR1 050212Z 13008KT 28/18 A3001 RMK A01 T02770175  RH  054%=      5-min Rain = 0
KFR1 050213Z 13009KT 28/18 A3001 RMK A01 T02760175  RH  054%=      5-min Rain = 0
KFR1 050214Z 13008KT 28/18 A3001 RMK A01 T02760175  RH  054%=      5-min Rain = 0
KFR1 050215Z 14009KT 28/18 A3001 RMK A01 T02760175  RH  054%=      5-min Rain = 0
KFR1 050216Z 13008KT 28/18 A3001 RMK A01 T02760175  RH  054%=      5-min Rain = 0
KFR1 050217Z 14007KT 28/18 A3001 RMK A01 T02760175  RH  054%=      5-min Rain = 0
KFR1 050218Z 13008KT 28/18 A3001 RMK A01 T02760175  RH  054%=      5-min Rain = 0
KFR1 050219Z 13008KT 28/18 A3001 RMK A01 T02760176  RH  054%=      5-min Rain = 0
KFR1 050220Z 13010KT 28/18 A3001 RMK A01 T02750175  RH  054%=      5-min Rain = 0
KFR1 050221Z 13009KT 28/18 A3001 RMK A01 T02750176  RH  054%=      5-min Rain = 0
KFR1 050222Z 13008KT 28/18 A3001 RMK A01 T02760176  RH  054%=      5-min Rain = 0
KFR1 050223Z 13008KT 28/18 A3001 RMK A01 T02750175  RH  055%=      5-min Rain = 0
KFR1 050224Z 13009KT 27/18 A3001 RMK A01 T02740175  RH  055%=      5-min Rain = 0
KFR1 050225Z 13009KT 27/18 A3001 RMK A01 T02740175  RH  055%=      5-min Rain = 0
KFR1 050226Z 13008KT 27/17 A3001 RMK A01 T02740174  RH  055%=      5-min Rain = 0
KFR1 050227Z 13009KT 27/17 A3001 RMK A01 T02740174  RH  055%=      5-min Rain = 0
KFR1 050228Z 14009KT 27/17 A3001 RMK A01 T02740174  RH  055%=      5-min Rain = 0
KFR1 050229Z 13007KT 27/17 A3001 RMK A01 T02730174  RH  055%=      5-min Rain = 0
KFR1 050230Z 13008KT 27/17 A3001 RMK A01 T02740174  RH  054%=      5-min Rain = 0
KFR1 050231Z 13008KT 27/17 A3001 RMK A01 T02730174  RH  055%=      5-min Rain = 0
KFR1 050232Z 13009KT 27/17 A3001 RMK A01 T02730174  RH  055%=      5-min Rain = 0
KFR1 050233Z 13008KT 27/17 A3001 RMK A01 T02730174  RH  055%=      5-min Rain = 0
KFR1 050234Z 14009KT 27/17 A3001 RMK A01 T02730174  RH  055%=      5-min Rain = 0
KFR1 050235Z 13008KT 27/17 A3001 RMK A01 T02730174  RH  055%=      5-min Rain = 0
KFR1 050236Z 13008KT 27/17 A3002 RMK A01 T02730174  RH  055%=      5-min Rain = 0
KFR1 050237Z 14008KT 27/17 A3002 RMK A01 T02720174  RH  055%=      5-min Rain = 0
KFR1 050238Z 14008KT 27/17 A3002 RMK A01 T02720174  RH  055%=      5-min Rain = 0
KFR1 050239Z 13008KT 27/18 A3001 RMK A01 T02720175  RH  055%=      5-min Rain = 0
KFR1 050240Z 13009KT 27/17 A3001 RMK A01 T02710174  RH  055%=      5-min Rain = 0
KFR1 050241Z 13011KT 27/17 A3001 RMK A01 T02710174  RH  055%=      5-min Rain = 0
KFR1 050242Z 13009KT 27/17 A3001 RMK A01 T02710174  RH  055%=      5-min Rain = 0
KFR1 050243Z 12008KT 27/18 A3001 RMK A01 T02710175  RH  056%=      5-min Rain = 0
KFR1 050244Z 12008KT 27/18 A3001 RMK A01 T02700175  RH  056%=      5-min Rain = 0
KFR1 050245Z 12010KT 27/17 A3001 RMK A01 T02690174  RH  056%=      5-min Rain = 0
KFR1 050246Z 12008KT 27/17 A3001 RMK A01 T02690174  RH  056%=      5-min Rain = 0
KFR1 050247Z 12009KT 27/17 A3001 RMK A01 T02690174  RH  056%=      5-min Rain = 0
KFR1 050248Z 12008KT 27/17 A3001 RMK A01 T02690174  RH  056%=      5-min Rain = 0
KFR1 050249Z 12009KT 27/17 A3001 RMK A01 T02690174  RH  056%=      5-min Rain = 0
KFR1 050250Z 13009KT 27/17 A3001 RMK A01 T02690174  RH  056%=      5-min Rain = 0
KFR1 050251Z 12009KT 27/17 A3001 RMK A01 T02690173  RH  056%=      5-min Rain = 0
KFR1 050252Z 12010KT 27/17 A3001 RMK A01 T02700174  RH  056%=      5-min Rain = 0
KFR1 050253Z 12010KT 27/17 A3001 RMK A01 T02700174  RH  056%=      5-min Rain = 0
KFR1 050254Z 12011KT 27/17 A3001 RMK A01 T02700174  RH  056%=      5-min Rain = 0
KFR1 050255Z 12011KT 27/17 A3001 RMK A01 T02690173  RH  056%=      5-min Rain = 0
KFR1 050256Z 12011KT 27/17 A3001 RMK A01 T02690173  RH  056%=      5-min Rain = 0
KFR1 050257Z 12009KT 27/17 A3001 RMK A01 T02690173  RH  056%=      5-min Rain = 0
KFR1 050258Z 12010KT 27/17 A3001 RMK A01 T02690174  RH  056%=      5-min Rain = 0
KFR1 050259Z 12010KT 27/17 A3001 RMK A01 T02690173  RH  056%=      5-min Rain = 0
KFR1 050300Z 12010KT 27/17 A3001 RMK A01 T02680173  RH  056%=      5-min Rain = 0
KFR1 050301Z 12010KT 27/17 A3001 RMK A01 T02680173  RH  056%=      5-min Rain = 0
KFR1 050302Z 13010KT 27/17 A3001 RMK A01 T02680172  RH  056%=      5-min Rain = 0
KFR1 050303Z 12010KT 27/17 A3001 RMK A01 T02680172  RH  056%=      5-min Rain = 0
KFR1 050304Z 14008KT 27/17 A3001 RMK A01 T02680172  RH  056%=      5-min Rain = 0
KFR1 050305Z 13011KT 27/17 A3001 RMK A01 T02680172  RH  055%=      5-min Rain = 0
KFR1 050306Z 14009KT 27/17 A3001 RMK A01 T02680171  RH  055%=      5-min Rain = 0
KFR1 050307Z 14009KT 27/17 A3001 RMK A01 T02680171  RH  055%=      5-min Rain = 0
KFR1 050308Z 15009KT 27/17 A3001 RMK A01 T02680170  RH  055%=      5-min Rain = 0
KFR1 050309Z 14007KT 27/17 A3001 RMK A01 T02670171  RH  055%=      5-min Rain = 0
KFR1 050310Z 14007KT 27/17 A3001 RMK A01 T02660171  RH  056%=      5-min Rain = 0
KFR1 050311Z 14008G13KT 27/17 A3001 RMK A01 T02650171  RH  056%=      5-min Rain = 0
KFR1 050312Z 13008KT 27/17 A3001 RMK A01 T02650170  RH  056%=      5-min Rain = 0
KFR1 050313Z 14008KT 26/17 A3001 RMK A01 T02640170  RH  056%=      5-min Rain = 0
KFR1 050314Z 14008KT 26/17 A3001 RMK A01 T02640170  RH  056%=      5-min Rain = 0
KFR1 050315Z 14009KT 26/17 A3001 RMK A01 T02640170  RH  056%=      5-min Rain = 0
KFR1 050316Z 14008KT 26/17 A3001 RMK A01 T02630169  RH  056%=      5-min Rain = 0
KFR1 050317Z 14008KT 26/17 A3001 RMK A01 T02630169  RH  056%=      5-min Rain = 0
KFR1 050318Z 13009KT 26/17 A3001 RMK A01 T02630168  RH  056%=      5-min Rain = 0
KFR1 050319Z 14008KT 26/17 A3001 RMK A01 T02630167  RH  056%=      5-min Rain = 0
KFR1 050320Z 14008KT 26/17 A3001 RMK A01 T02620166  RH  055%=      5-min Rain = 0
KFR1 050321Z 14009G14KT 26/17 A3001 RMK A01 T02620165  RH  055%=      5-min Rain = 0
KFR1 050322Z 14009KT 26/17 A3002 RMK A01 T02630165  RH  055%=      5-min Rain = 0
KFR1 050323Z 14008G13KT 26/17 A3002 RMK A01 T02620165  RH  055%=      5-min Rain = 0
KFR1 050324Z 14011KT 26/17 A3002 RMK A01 T02630166  RH  055%=      5-min Rain = 0
KFR1 050325Z 14010KT 26/17 A3002 RMK A01 T02620165  RH  055%=      5-min Rain = 0
KFR1 050326Z 13009KT 26/17 A3002 RMK A01 T02620165  RH  055%=      5-min Rain = 0
KFR1 050327Z 14009G14KT 26/16 A3002 RMK A01 T02620164  RH  055%=      5-min Rain = 0
KFR1 050328Z 14009KT 26/16 A3002 RMK A01 T02620164  RH  055%=      5-min Rain = 0
KFR1 050329Z 14009KT 26/16 A3002 RMK A01 T02620164  RH  055%=      5-min Rain = 0
KFR1 050330Z 15008KT 26/16 A3002 RMK A01 T02620164  RH  055%=      5-min Rain = 0
KFR1 050331Z 14009KT 26/16 A3002 RMK A01 T02620164  RH  055%=      5-min Rain = 0
KFR1 050332Z 14009KT 26/16 A3002 RMK A01 T02610164  RH  055%=      5-min Rain = 0
KFR1 050333Z 14009G14KT 26/16 A3002 RMK A01 T02620164  RH  055%=      5-min Rain = 0
KFR1 050334Z 14008G15KT 26/16 A3002 RMK A01 T02620164  RH  055%=      5-min Rain = 0
KFR1 050335Z 14010KT 26/16 A3002 RMK A01 T02620164  RH  055%=      5-min Rain = 0
KFR1 050336Z 15008KT 26/16 A3002 RMK A01 T02610164  RH  055%=      5-min Rain = 0
KFR1 050337Z 15008KT 26/16 A3002 RMK A01 T02610164  RH  055%=      5-min Rain = 0
KFR1 050338Z 15007KT 26/16 A3003 RMK A01 T02600164  RH  055%=      5-min Rain = 0
KFR1 050339Z 15007KT 26/16 A3003 RMK A01 T02600164  RH  056%=      5-min Rain = 0
KFR1 050340Z 15008G13KT 26/16 A3003 RMK A01 T02600164  RH  056%=      5-min Rain = 0
KFR1 050341Z 15009KT 26/17 A3003 RMK A01 T02590165  RH  056%=      5-min Rain = 0
KFR1 050342Z 15008KT 26/17 A3003 RMK A01 T02590165  RH  056%=      5-min Rain = 0
KFR1 050343Z 15009KT 26/17 A3003 RMK A01 T02590165  RH  056%=      5-min Rain = 0
KFR1 050344Z 14008KT 26/17 A3003 RMK A01 T02590165  RH  056%=      5-min Rain = 0
KFR1 050345Z 15008G13KT 26/17 A3003 RMK A01 T02590166  RH  056%=      5-min Rain = 0
KFR1 050346Z 14008KT 26/17 A3003 RMK A01 T02580166  RH  057%=      5-min Rain = 0
KFR1 050347Z 14009KT 26/17 A3003 RMK A01 T02580166  RH  057%=      5-min Rain = 0
KFR1 050348Z 14009KT 26/17 A3003 RMK A01 T02580166  RH  057%=      5-min Rain = 0
KFR1 050349Z 14009KT 26/17 A3003 RMK A01 T02580166  RH  057%=      5-min Rain = 0
KFR1 050350Z 14008KT 26/17 A3003 RMK A01 T02570166  RH  057%=      5-min Rain = 0
KFR1 050351Z 14008KT 26/17 A3003 RMK A01 T02570167  RH  057%=      5-min Rain = 0
KFR1 050352Z 13008KT 26/17 A3003 RMK A01 T02570167  RH  058%=      5-min Rain = 0
KFR1 050353Z 14008KT 26/17 A3003 RMK A01 T02560167  RH  058%=      5-min Rain = 0
KFR1 050354Z 15008KT 26/17 A3003 RMK A01 T02560168  RH  058%=      5-min Rain = 0
KFR1 050355Z 14008G13KT 26/17 A3003 RMK A01 T02560168  RH  058%=      5-min Rain = 0
KFR1 050356Z 14008KT 26/17 A3003 RMK A01 T02560168  RH  058%=      5-min Rain = 0
KFR1 050357Z 14008KT 26/17 A3003 RMK A01 T02550168  RH  059%=      5-min Rain = 0
KFR1 050358Z 14008KT 26/17 A3004 RMK A01 T02550168  RH  059%=      5-min Rain = 0
KFR1 050359Z 14008KT 25/17 A3004 RMK A01 T02540168  RH  059%=      5-min Rain = 0
KFR1 050400Z 14008KT 25/17 A3004 RMK A01 T02540169  RH  059%=      5-min Rain = 0
KFR1 050401Z 14007G12KT 25/17 A3004 RMK A01 T02540169  RH  059%=      5-min Rain = 0
KFR1 050402Z 14008KT 25/17 A3004 RMK A01 T02540169  RH  059%=      5-min Rain = 0
KFR1 050403Z 15009KT 25/17 A3004 RMK A01 T02540169  RH  059%=      5-min Rain = 0
KFR1 050404Z 14007KT 25/17 A3004 RMK A01 T02540169  RH  060%=      5-min Rain = 0
KFR1 050405Z 14007KT 25/17 A3004 RMK A01 T02530169  RH  060%=      5-min Rain = 0
KFR1 050406Z 15008KT 25/17 A3004 RMK A01 T02530170  RH  060%=      5-min Rain = 0
KFR1 050407Z 13007KT 25/17 A3004 RMK A01 T02530170  RH  060%=      5-min Rain = 0
KFR1 050408Z 14008KT 25/17 A3004 RMK A01 T02530170  RH  060%=      5-min Rain = 0
KFR1 050409Z 14007KT 25/17 A3004 RMK A01 T02520170  RH  060%=      5-min Rain = 0
KFR1 050410Z 14007KT 25/17 A3004 RMK A01 T02520170  RH  060%=      5-min Rain = 0
KFR1 050411Z 15007G12KT 25/17 A3004 RMK A01 T02520171  RH  061%=      5-min Rain = 0
KFR1 050412Z 15009KT 25/17 A3004 RMK A01 T02520170  RH  061%=      5-min Rain = 0
KFR1 050413Z 16007KT 25/17 A3004 RMK A01 T02510170  RH  061%=      5-min Rain = 0
KFR1 050414Z 16011KT 25/17 A3004 RMK A01 T02510170  RH  061%=      5-min Rain = 0
KFR1 050415Z 16011KT 25/17 A3005 RMK A01 T02510170  RH  061%=      5-min Rain = 0
KFR1 050416Z 17011KT 25/17 A3005 RMK A01 T02510171  RH  061%=      5-min Rain = 0
KFR1 050417Z 17010KT 25/17 A3005 RMK A01 T02500171  RH  061%=      5-min Rain = 0
KFR1 050418Z 17010KT 25/17 A3005 RMK A01 T02500171  RH  061%=      5-min Rain = 0
KFR1 050419Z 17010KT 25/17 A3005 RMK A01 T02500171  RH  061%=      5-min Rain = 0
KFR1 050420Z 16010KT 25/17 A3005 RMK A01 T02500171  RH  061%=      5-min Rain = 0
KFR1 050421Z 16009KT 25/17 A3005 RMK A01 T02500171  RH  062%=      5-min Rain = 0
KFR1 050422Z 16011KT 25/17 A3005 RMK A01 T02500171  RH  062%=      5-min Rain = 0
KFR1 050423Z 16012KT 25/17 A3004 RMK A01 T02490171  RH  062%=      5-min Rain = 0
KFR1 050424Z 15008G13KT 25/17 A3004 RMK A01 T02500172  RH  062%=      5-min Rain = 0
KFR1 050425Z 16012KT 25/17 A3004 RMK A01 T02500173  RH  062%=      5-min Rain = 0
KFR1 050426Z 16010G15KT 25/17 A3004 RMK A01 T02500174  RH  063%=      5-min Rain = 0
KFR1 050427Z 16011KT 25/17 A3004 RMK A01 T02500174  RH  063%=      5-min Rain = 0
KFR1 050428Z 16011KT 25/18 A3004 RMK A01 T02500175  RH  063%=      5-min Rain = 0
KFR1 050429Z 16013KT 25/18 A3004 RMK A01 T02490175  RH  063%=      5-min Rain = 0
KFR1 050430Z 16012KT 25/18 A3004 RMK A01 T02490176  RH  064%=      5-min Rain = 0
KFR1 050431Z 17011KT 25/18 A3005 RMK A01 T02490177  RH  064%=      5-min Rain = 0
KFR1 050432Z 17011KT 25/18 A3005 RMK A01 T02490178  RH  065%=      5-min Rain = 0
KFR1 050433Z 17010KT 25/18 A3005 RMK A01 T02490179  RH  065%=      5-min Rain = 0
KFR1 050434Z 18007KT 25/18 A3005 RMK A01 T02480179  RH  065%=      5-min Rain = 0
KFR1 050435Z 18008KT 25/18 A3005 RMK A01 T02490180  RH  066%=      5-min Rain = 0
KFR1 050436Z 18009KT 25/18 A3005 RMK A01 T02490180  RH  066%=      5-min Rain = 0
KFR1 050437Z 19008KT 25/18 A3005 RMK A01 T02480180  RH  066%=      5-min Rain = 0
KFR1 050438Z 19008KT 25/18 A3005 RMK A01 T02480180  RH  066%=      5-min Rain = 0
KFR1 050439Z 19008KT 25/18 A3005 RMK A01 T02470180  RH  066%=      5-min Rain = 0
KFR1 050440Z 19007KT 25/18 A3005 RMK A01 T02480181  RH  066%=      5-min Rain = 0
KFR1 050441Z 20006KT 25/18 A3005 RMK A01 T02480181  RH  067%=      5-min Rain = 0
KFR1 050442Z 21007KT 25/18 A3005 RMK A01 T02470181  RH  067%=      5-min Rain = 0
KFR1 050443Z 21007KT 25/18 A3005 RMK A01 T02470182  RH  067%=      5-min Rain = 0
KFR1 050444Z 21007KT 25/18 A3005 RMK A01 T02470182  RH  067%=      5-min Rain = 0
KFR1 050445Z 22005KT 25/18 A3005 RMK A01 T02470182  RH  067%=      5-min Rain = 0
KFR1 050446Z 23006KT 25/18 A3005 RMK A01 T02460182  RH  067%=      5-min Rain = 0
KFR1 050447Z 23006KT 25/18 A3005 RMK A01 T02460183  RH  068%=      5-min Rain = 0
KFR1 050448Z 23006KT 25/18 A3005 RMK A01 T02460183  RH  068%=      5-min Rain = 0
KFR1 050449Z 23006KT 25/18 A3005 RMK A01 T02460183  RH  068%=      5-min Rain = 0
KFR1 050450Z 23006KT 25/18 A3005 RMK A01 T02460182  RH  068%=      5-min Rain = 0
KFR1 050451Z 23005KT 25/18 A3005 RMK A01 T02460182  RH  068%=      5-min Rain = 0
KFR1 050452Z 22005KT 25/18 A3005 RMK A01 T02460183  RH  068%=      5-min Rain = 0
KFR1 050453Z 23004KT 25/18 A3005 RMK A01 T02460183  RH  068%=      5-min Rain = 0
KFR1 050454Z 23005KT 25/18 A3005 RMK A01 T02460183  RH  068%=      5-min Rain = 0
KFR1 050455Z 22005KT 25/18 A3005 RMK A01 T02460182  RH  068%=      5-min Rain = 0
KFR1 050456Z 22004KT 25/18 A3005 RMK A01 T02460182  RH  068%=      5-min Rain = 0
KFR1 050457Z 22004KT 25/18 A3005 RMK A01 T02470183  RH  068%=      5-min Rain = 0
KFR1 050458Z 22004KT 25/18 A3005 RMK A01 T02470183  RH  068%=      5-min Rain = 0
KFR1 050459Z 22005KT 25/18 A3005 RMK A01 T02470183  RH  068%=      5-min Rain = 0

Page generated in 0.1223 seconds.